<?xml version="1.0" encoding="UTF-8" standalone="no" ?>
<gpx xmlns="http://www.topografix.com/GPX/1/1" xmlns:xsi="http://www.w3.org/2001/XMLSchema-instance" xsi:schemaLocation="http://www.topografix.com/GPX/1/1 http://www.topografix.com/GPX/1/1/gpx.xsd" version="1.1" creator="VisuGPX - https://www.visugpx.com">
  <metadata>
    <name>Bord de l'Oise depuis Conflans fin d'Oise</name>
  </metadata>
  <trk>
    <name><![CDATA[MA-Rando-2019-05-17-150608]]></name>
    <trkseg>
      <trkpt lat="48.98931" lon="2.07482">
        <ele>29</ele>
        <time>2019-05-17T12:26:53Z</time>
      </trkpt>
      <trkpt lat="48.98922" lon="2.0748">
        <ele>29</ele>
        <time>2019-05-17T12:27:04Z</time>
      </trkpt>
      <trkpt lat="48.98912" lon="2.07482">
        <ele>28</ele>
        <time>2019-05-17T12:27:10Z</time>
      </trkpt>
      <trkpt lat="48.98902" lon="2.07486">
        <ele>27</ele>
        <time>2019-05-17T12:27:16Z</time>
      </trkpt>
      <trkpt lat="48.98893" lon="2.0749">
        <ele>27</ele>
        <time>2019-05-17T12:27:22Z</time>
      </trkpt>
      <trkpt lat="48.98882" lon="2.07492">
        <ele>27</ele>
        <time>2019-05-17T12:27:27Z</time>
      </trkpt>
      <trkpt lat="48.98872" lon="2.07493">
        <ele>26</ele>
        <time>2019-05-17T12:27:33Z</time>
      </trkpt>
      <trkpt lat="48.98862" lon="2.07497">
        <ele>26</ele>
        <time>2019-05-17T12:27:40Z</time>
      </trkpt>
      <trkpt lat="48.98853" lon="2.07504">
        <ele>26</ele>
        <time>2019-05-17T12:27:49Z</time>
      </trkpt>
      <trkpt lat="48.98844" lon="2.07509">
        <ele>25</ele>
        <time>2019-05-17T12:27:54Z</time>
      </trkpt>
      <trkpt lat="48.98835" lon="2.07514">
        <ele>25</ele>
        <time>2019-05-17T12:28:00Z</time>
      </trkpt>
      <trkpt lat="48.98826" lon="2.07521">
        <ele>24</ele>
        <time>2019-05-17T12:28:06Z</time>
      </trkpt>
      <trkpt lat="48.98818" lon="2.07527">
        <ele>23</ele>
        <time>2019-05-17T12:28:12Z</time>
      </trkpt>
      <trkpt lat="48.9881" lon="2.07532">
        <ele>23</ele>
        <time>2019-05-17T12:28:48Z</time>
      </trkpt>
      <trkpt lat="48.98802" lon="2.07524">
        <ele>23</ele>
        <time>2019-05-17T12:29:00Z</time>
      </trkpt>
      <trkpt lat="48.988" lon="2.07509">
        <ele>23</ele>
        <time>2019-05-17T12:29:05Z</time>
      </trkpt>
      <trkpt lat="48.98799" lon="2.07495">
        <ele>24</ele>
        <time>2019-05-17T12:29:10Z</time>
      </trkpt>
      <trkpt lat="48.98796" lon="2.07481">
        <ele>24</ele>
        <time>2019-05-17T12:29:22Z</time>
      </trkpt>
      <trkpt lat="48.98794" lon="2.07466">
        <ele>24</ele>
        <time>2019-05-17T12:29:30Z</time>
      </trkpt>
      <trkpt lat="48.98791" lon="2.07452">
        <ele>24</ele>
        <time>2019-05-17T12:29:38Z</time>
      </trkpt>
      <trkpt lat="48.98785" lon="2.07441">
        <ele>24</ele>
        <time>2019-05-17T12:29:46Z</time>
      </trkpt>
      <trkpt lat="48.98784" lon="2.07426">
        <ele>24</ele>
        <time>2019-05-17T12:29:53Z</time>
      </trkpt>
      <trkpt lat="48.98782" lon="2.07413">
        <ele>23</ele>
        <time>2019-05-17T12:30:09Z</time>
      </trkpt>
      <trkpt lat="48.98777" lon="2.074">
        <ele>23</ele>
        <time>2019-05-17T12:30:37Z</time>
      </trkpt>
      <trkpt lat="48.98775" lon="2.07386">
        <ele>23</ele>
        <time>2019-05-17T12:30:44Z</time>
      </trkpt>
      <trkpt lat="48.98772" lon="2.07371">
        <ele>23</ele>
        <time>2019-05-17T12:31:10Z</time>
      </trkpt>
      <trkpt lat="48.98769" lon="2.07358">
        <ele>23</ele>
        <time>2019-05-17T12:31:21Z</time>
      </trkpt>
      <trkpt lat="48.98769" lon="2.07342">
        <ele>23</ele>
        <time>2019-05-17T12:31:28Z</time>
      </trkpt>
      <trkpt lat="48.98769" lon="2.07357">
        <ele>23</ele>
        <time>2019-05-17T12:31:54Z</time>
      </trkpt>
      <trkpt lat="48.98771" lon="2.07373">
        <ele>23</ele>
        <time>2019-05-17T12:32:01Z</time>
      </trkpt>
      <trkpt lat="48.98772" lon="2.07387">
        <ele>23</ele>
        <time>2019-05-17T12:32:09Z</time>
      </trkpt>
      <trkpt lat="48.98776" lon="2.07402">
        <ele>23</ele>
        <time>2019-05-17T12:32:17Z</time>
      </trkpt>
      <trkpt lat="48.9878" lon="2.07415">
        <ele>23</ele>
        <time>2019-05-17T12:32:25Z</time>
      </trkpt>
      <trkpt lat="48.98787" lon="2.07424">
        <ele>24</ele>
        <time>2019-05-17T12:32:31Z</time>
      </trkpt>
      <trkpt lat="48.98797" lon="2.07419">
        <ele>24</ele>
        <time>2019-05-17T12:32:40Z</time>
      </trkpt>
      <trkpt lat="48.98807" lon="2.07423">
        <ele>24</ele>
        <time>2019-05-17T12:32:44Z</time>
      </trkpt>
      <trkpt lat="48.98818" lon="2.0742">
        <ele>24</ele>
        <time>2019-05-17T12:32:47Z</time>
      </trkpt>
      <trkpt lat="48.98828" lon="2.07419">
        <ele>24</ele>
        <time>2019-05-17T12:32:50Z</time>
      </trkpt>
      <trkpt lat="48.98837" lon="2.07416">
        <ele>24</ele>
        <time>2019-05-17T12:32:56Z</time>
      </trkpt>
      <trkpt lat="48.98826" lon="2.07416">
        <ele>24</ele>
        <time>2019-05-17T12:33:28Z</time>
      </trkpt>
      <trkpt lat="48.98817" lon="2.07418">
        <ele>24</ele>
        <time>2019-05-17T12:33:51Z</time>
      </trkpt>
      <trkpt lat="48.98808" lon="2.0742">
        <ele>24</ele>
        <time>2019-05-17T12:33:57Z</time>
      </trkpt>
      <trkpt lat="48.98797" lon="2.07422">
        <ele>24</ele>
        <time>2019-05-17T12:34:02Z</time>
      </trkpt>
      <trkpt lat="48.98787" lon="2.07421">
        <ele>24</ele>
        <time>2019-05-17T12:34:07Z</time>
      </trkpt>
      <trkpt lat="48.98782" lon="2.07407">
        <ele>23</ele>
        <time>2019-05-17T12:34:12Z</time>
      </trkpt>
      <trkpt lat="48.98778" lon="2.07392">
        <ele>23</ele>
        <time>2019-05-17T12:34:19Z</time>
      </trkpt>
      <trkpt lat="48.98775" lon="2.07379">
        <ele>23</ele>
        <time>2019-05-17T12:34:25Z</time>
      </trkpt>
      <trkpt lat="48.98771" lon="2.07365">
        <ele>23</ele>
        <time>2019-05-17T12:34:31Z</time>
      </trkpt>
      <trkpt lat="48.98769" lon="2.07349">
        <ele>23</ele>
        <time>2019-05-17T12:34:38Z</time>
      </trkpt>
      <trkpt lat="48.98768" lon="2.07334">
        <ele>23</ele>
        <time>2019-05-17T12:34:46Z</time>
      </trkpt>
      <trkpt lat="48.9877" lon="2.07319">
        <ele>23</ele>
        <time>2019-05-17T12:34:54Z</time>
      </trkpt>
      <trkpt lat="48.98775" lon="2.07306">
        <ele>23</ele>
        <time>2019-05-17T12:35:01Z</time>
      </trkpt>
      <trkpt lat="48.98771" lon="2.07291">
        <ele>23</ele>
        <time>2019-05-17T12:35:09Z</time>
      </trkpt>
      <trkpt lat="48.98765" lon="2.07279">
        <ele>22</ele>
        <time>2019-05-17T12:35:16Z</time>
      </trkpt>
      <trkpt lat="48.9876" lon="2.07266">
        <ele>22</ele>
        <time>2019-05-17T12:35:26Z</time>
      </trkpt>
      <trkpt lat="48.9876" lon="2.07252">
        <ele>22</ele>
        <time>2019-05-17T12:35:34Z</time>
      </trkpt>
      <trkpt lat="48.98761" lon="2.07238">
        <ele>22</ele>
        <time>2019-05-17T12:35:42Z</time>
      </trkpt>
      <trkpt lat="48.98766" lon="2.07225">
        <ele>21</ele>
        <time>2019-05-17T12:35:48Z</time>
      </trkpt>
      <trkpt lat="48.98776" lon="2.07223">
        <ele>21</ele>
        <time>2019-05-17T12:35:55Z</time>
      </trkpt>
      <trkpt lat="48.98785" lon="2.07227">
        <ele>21</ele>
        <time>2019-05-17T12:36:00Z</time>
      </trkpt>
      <trkpt lat="48.98796" lon="2.0723">
        <ele>22</ele>
        <time>2019-05-17T12:36:08Z</time>
      </trkpt>
      <trkpt lat="48.98805" lon="2.07235">
        <ele>22</ele>
        <time>2019-05-17T12:36:12Z</time>
      </trkpt>
      <trkpt lat="48.98813" lon="2.0724">
        <ele>22</ele>
        <time>2019-05-17T12:36:22Z</time>
      </trkpt>
      <trkpt lat="48.98823" lon="2.07247">
        <ele>22</ele>
        <time>2019-05-17T12:36:26Z</time>
      </trkpt>
      <trkpt lat="48.98832" lon="2.07252">
        <ele>23</ele>
        <time>2019-05-17T12:36:31Z</time>
      </trkpt>
      <trkpt lat="48.98842" lon="2.07256">
        <ele>23</ele>
        <time>2019-05-17T12:36:43Z</time>
      </trkpt>
      <trkpt lat="48.98853" lon="2.07258">
        <ele>23</ele>
        <time>2019-05-17T12:36:50Z</time>
      </trkpt>
      <trkpt lat="48.98862" lon="2.07256">
        <ele>23</ele>
        <time>2019-05-17T12:36:56Z</time>
      </trkpt>
      <trkpt lat="48.98872" lon="2.07255">
        <ele>23</ele>
        <time>2019-05-17T12:37:03Z</time>
      </trkpt>
      <trkpt lat="48.98881" lon="2.07252">
        <ele>23</ele>
        <time>2019-05-17T12:37:10Z</time>
      </trkpt>
      <trkpt lat="48.9889" lon="2.0726">
        <ele>23</ele>
        <time>2019-05-17T12:37:23Z</time>
      </trkpt>
      <trkpt lat="48.98899" lon="2.07267">
        <ele>23</ele>
        <time>2019-05-17T12:37:26Z</time>
      </trkpt>
      <trkpt lat="48.98909" lon="2.07277">
        <ele>23</ele>
        <time>2019-05-17T12:37:32Z</time>
      </trkpt>
      <trkpt lat="48.98917" lon="2.07285">
        <ele>23</ele>
        <time>2019-05-17T12:37:38Z</time>
      </trkpt>
      <trkpt lat="48.98924" lon="2.07293">
        <ele>23</ele>
        <time>2019-05-17T12:37:44Z</time>
      </trkpt>
      <trkpt lat="48.98932" lon="2.07299">
        <ele>23</ele>
        <time>2019-05-17T12:37:53Z</time>
      </trkpt>
      <trkpt lat="48.9894" lon="2.07308">
        <ele>23</ele>
        <time>2019-05-17T12:38:02Z</time>
      </trkpt>
      <trkpt lat="48.98951" lon="2.07308">
        <ele>23</ele>
        <time>2019-05-17T12:38:08Z</time>
      </trkpt>
      <trkpt lat="48.98961" lon="2.07308">
        <ele>23</ele>
        <time>2019-05-17T12:38:13Z</time>
      </trkpt>
      <trkpt lat="48.9897" lon="2.07309">
        <ele>23</ele>
        <time>2019-05-17T12:38:21Z</time>
      </trkpt>
      <trkpt lat="48.98979" lon="2.07306">
        <ele>23</ele>
        <time>2019-05-17T12:38:28Z</time>
      </trkpt>
      <trkpt lat="48.98989" lon="2.07303">
        <ele>23</ele>
        <time>2019-05-17T12:38:36Z</time>
      </trkpt>
      <trkpt lat="48.98999" lon="2.07301">
        <ele>23</ele>
        <time>2019-05-17T12:38:44Z</time>
      </trkpt>
      <trkpt lat="48.99008" lon="2.073">
        <ele>23</ele>
        <time>2019-05-17T12:38:52Z</time>
      </trkpt>
      <trkpt lat="48.99017" lon="2.07299">
        <ele>23</ele>
        <time>2019-05-17T12:39:01Z</time>
      </trkpt>
      <trkpt lat="48.99027" lon="2.07298">
        <ele>23</ele>
        <time>2019-05-17T12:39:10Z</time>
      </trkpt>
      <trkpt lat="48.99037" lon="2.07298">
        <ele>23</ele>
        <time>2019-05-17T12:39:16Z</time>
      </trkpt>
      <trkpt lat="48.99047" lon="2.07303">
        <ele>23</ele>
        <time>2019-05-17T12:39:21Z</time>
      </trkpt>
      <trkpt lat="48.99056" lon="2.07303">
        <ele>23</ele>
        <time>2019-05-17T12:39:29Z</time>
      </trkpt>
      <trkpt lat="48.99067" lon="2.07304">
        <ele>23</ele>
        <time>2019-05-17T12:39:39Z</time>
      </trkpt>
      <trkpt lat="48.99076" lon="2.07305">
        <ele>23</ele>
        <time>2019-05-17T12:39:45Z</time>
      </trkpt>
      <trkpt lat="48.99086" lon="2.07307">
        <ele>23</ele>
        <time>2019-05-17T12:39:53Z</time>
      </trkpt>
      <trkpt lat="48.99096" lon="2.07308">
        <ele>23</ele>
        <time>2019-05-17T12:39:59Z</time>
      </trkpt>
      <trkpt lat="48.99105" lon="2.07308">
        <ele>23</ele>
        <time>2019-05-17T12:40:06Z</time>
      </trkpt>
      <trkpt lat="48.99115" lon="2.07308">
        <ele>23</ele>
        <time>2019-05-17T12:40:12Z</time>
      </trkpt>
      <trkpt lat="48.99125" lon="2.0731">
        <ele>23</ele>
        <time>2019-05-17T12:40:19Z</time>
      </trkpt>
      <trkpt lat="48.99135" lon="2.07311">
        <ele>23</ele>
        <time>2019-05-17T12:40:26Z</time>
      </trkpt>
      <trkpt lat="48.99144" lon="2.07309">
        <ele>23</ele>
        <time>2019-05-17T12:40:33Z</time>
      </trkpt>
      <trkpt lat="48.99153" lon="2.0731">
        <ele>23</ele>
        <time>2019-05-17T12:40:38Z</time>
      </trkpt>
      <trkpt lat="48.99163" lon="2.07311">
        <ele>23</ele>
        <time>2019-05-17T12:40:45Z</time>
      </trkpt>
      <trkpt lat="48.99174" lon="2.07307">
        <ele>22</ele>
        <time>2019-05-17T12:40:53Z</time>
      </trkpt>
      <trkpt lat="48.99183" lon="2.07304">
        <ele>22</ele>
        <time>2019-05-17T12:40:58Z</time>
      </trkpt>
      <trkpt lat="48.99186" lon="2.07291">
        <ele>21</ele>
        <time>2019-05-17T12:41:09Z</time>
      </trkpt>
      <trkpt lat="48.99196" lon="2.07293">
        <ele>21</ele>
        <time>2019-05-17T12:41:14Z</time>
      </trkpt>
      <trkpt lat="48.99205" lon="2.07297">
        <ele>21</ele>
        <time>2019-05-17T12:41:20Z</time>
      </trkpt>
      <trkpt lat="48.99217" lon="2.07298">
        <ele>21</ele>
        <time>2019-05-17T12:41:29Z</time>
      </trkpt>
      <trkpt lat="48.99226" lon="2.07301">
        <ele>21</ele>
        <time>2019-05-17T12:41:33Z</time>
      </trkpt>
      <trkpt lat="48.99236" lon="2.07302">
        <ele>21</ele>
        <time>2019-05-17T12:41:40Z</time>
      </trkpt>
      <trkpt lat="48.99243" lon="2.07312">
        <ele>21</ele>
        <time>2019-05-17T12:41:48Z</time>
      </trkpt>
      <trkpt lat="48.9925" lon="2.07321">
        <ele>22</ele>
        <time>2019-05-17T12:41:59Z</time>
      </trkpt>
      <trkpt lat="48.99259" lon="2.07325">
        <ele>22</ele>
        <time>2019-05-17T12:42:06Z</time>
      </trkpt>
      <trkpt lat="48.99268" lon="2.07324">
        <ele>22</ele>
        <time>2019-05-17T12:42:14Z</time>
      </trkpt>
      <trkpt lat="48.99278" lon="2.07323">
        <ele>22</ele>
        <time>2019-05-17T12:42:21Z</time>
      </trkpt>
      <trkpt lat="48.99287" lon="2.07321">
        <ele>22</ele>
        <time>2019-05-17T12:42:28Z</time>
      </trkpt>
      <trkpt lat="48.99297" lon="2.0732">
        <ele>22</ele>
        <time>2019-05-17T12:42:35Z</time>
      </trkpt>
      <trkpt lat="48.99306" lon="2.07318">
        <ele>22</ele>
        <time>2019-05-17T12:42:41Z</time>
      </trkpt>
      <trkpt lat="48.99315" lon="2.07315">
        <ele>23</ele>
        <time>2019-05-17T12:42:48Z</time>
      </trkpt>
      <trkpt lat="48.99325" lon="2.07313">
        <ele>23</ele>
        <time>2019-05-17T12:42:56Z</time>
      </trkpt>
      <trkpt lat="48.99334" lon="2.0731">
        <ele>23</ele>
        <time>2019-05-17T12:43:03Z</time>
      </trkpt>
      <trkpt lat="48.99344" lon="2.07315">
        <ele>24</ele>
        <time>2019-05-17T12:43:08Z</time>
      </trkpt>
      <trkpt lat="48.99353" lon="2.07319">
        <ele>23</ele>
        <time>2019-05-17T12:43:13Z</time>
      </trkpt>
      <trkpt lat="48.99363" lon="2.07318">
        <ele>23</ele>
        <time>2019-05-17T12:43:20Z</time>
      </trkpt>
      <trkpt lat="48.99374" lon="2.07317">
        <ele>23</ele>
        <time>2019-05-17T12:43:28Z</time>
      </trkpt>
      <trkpt lat="48.99383" lon="2.07314">
        <ele>23</ele>
        <time>2019-05-17T12:43:35Z</time>
      </trkpt>
      <trkpt lat="48.99393" lon="2.07311">
        <ele>23</ele>
        <time>2019-05-17T12:43:43Z</time>
      </trkpt>
      <trkpt lat="48.99402" lon="2.07309">
        <ele>23</ele>
        <time>2019-05-17T12:43:49Z</time>
      </trkpt>
      <trkpt lat="48.99411" lon="2.0731">
        <ele>23</ele>
        <time>2019-05-17T12:43:56Z</time>
      </trkpt>
      <trkpt lat="48.9942" lon="2.07311">
        <ele>24</ele>
        <time>2019-05-17T12:44:03Z</time>
      </trkpt>
      <trkpt lat="48.99429" lon="2.07312">
        <ele>24</ele>
        <time>2019-05-17T12:44:10Z</time>
      </trkpt>
      <trkpt lat="48.99439" lon="2.0731">
        <ele>24</ele>
        <time>2019-05-17T12:44:17Z</time>
      </trkpt>
      <trkpt lat="48.99448" lon="2.07314">
        <ele>24</ele>
        <time>2019-05-17T12:44:24Z</time>
      </trkpt>
      <trkpt lat="48.99457" lon="2.07315">
        <ele>24</ele>
        <time>2019-05-17T12:44:31Z</time>
      </trkpt>
      <trkpt lat="48.99467" lon="2.07315">
        <ele>24</ele>
        <time>2019-05-17T12:44:38Z</time>
      </trkpt>
      <trkpt lat="48.99476" lon="2.07314">
        <ele>24</ele>
        <time>2019-05-17T12:44:46Z</time>
      </trkpt>
      <trkpt lat="48.99487" lon="2.07315">
        <ele>25</ele>
        <time>2019-05-17T12:44:54Z</time>
      </trkpt>
      <trkpt lat="48.99497" lon="2.07313">
        <ele>25</ele>
        <time>2019-05-17T12:45:01Z</time>
      </trkpt>
      <trkpt lat="48.99507" lon="2.07313">
        <ele>26</ele>
        <time>2019-05-17T12:45:14Z</time>
      </trkpt>
      <trkpt lat="48.99516" lon="2.07315">
        <ele>26</ele>
        <time>2019-05-17T12:45:22Z</time>
      </trkpt>
      <trkpt lat="48.99526" lon="2.07318">
        <ele>26</ele>
        <time>2019-05-17T12:45:28Z</time>
      </trkpt>
      <trkpt lat="48.99535" lon="2.07318">
        <ele>26</ele>
        <time>2019-05-17T12:45:36Z</time>
      </trkpt>
      <trkpt lat="48.99545" lon="2.0732">
        <ele>26</ele>
        <time>2019-05-17T12:45:43Z</time>
      </trkpt>
      <trkpt lat="48.99555" lon="2.07319">
        <ele>26</ele>
        <time>2019-05-17T12:45:51Z</time>
      </trkpt>
      <trkpt lat="48.99565" lon="2.07317">
        <ele>27</ele>
        <time>2019-05-17T12:45:58Z</time>
      </trkpt>
      <trkpt lat="48.99574" lon="2.07318">
        <ele>27</ele>
        <time>2019-05-17T12:46:06Z</time>
      </trkpt>
      <trkpt lat="48.99583" lon="2.07318">
        <ele>28</ele>
        <time>2019-05-17T12:46:12Z</time>
      </trkpt>
      <trkpt lat="48.99592" lon="2.0732">
        <ele>28</ele>
        <time>2019-05-17T12:46:18Z</time>
      </trkpt>
      <trkpt lat="48.99602" lon="2.0732">
        <ele>28</ele>
        <time>2019-05-17T12:46:24Z</time>
      </trkpt>
      <trkpt lat="48.99611" lon="2.07324">
        <ele>28</ele>
        <time>2019-05-17T12:46:31Z</time>
      </trkpt>
      <trkpt lat="48.99621" lon="2.07325">
        <ele>28</ele>
        <time>2019-05-17T12:46:39Z</time>
      </trkpt>
      <trkpt lat="48.9963" lon="2.07325">
        <ele>28</ele>
        <time>2019-05-17T12:46:45Z</time>
      </trkpt>
      <trkpt lat="48.99639" lon="2.07327">
        <ele>28</ele>
        <time>2019-05-17T12:46:52Z</time>
      </trkpt>
      <trkpt lat="48.99649" lon="2.07325">
        <ele>29</ele>
        <time>2019-05-17T12:47:00Z</time>
      </trkpt>
      <trkpt lat="48.99658" lon="2.07328">
        <ele>30</ele>
        <time>2019-05-17T12:47:07Z</time>
      </trkpt>
      <trkpt lat="48.99668" lon="2.07326">
        <ele>30</ele>
        <time>2019-05-17T12:47:15Z</time>
      </trkpt>
      <trkpt lat="48.99679" lon="2.07326">
        <ele>29</ele>
        <time>2019-05-17T12:47:22Z</time>
      </trkpt>
      <trkpt lat="48.99688" lon="2.07328">
        <ele>28</ele>
        <time>2019-05-17T12:47:28Z</time>
      </trkpt>
      <trkpt lat="48.99699" lon="2.07325">
        <ele>28</ele>
        <time>2019-05-17T12:47:37Z</time>
      </trkpt>
      <trkpt lat="48.99708" lon="2.0733">
        <ele>28</ele>
        <time>2019-05-17T12:47:43Z</time>
      </trkpt>
      <trkpt lat="48.99719" lon="2.0733">
        <ele>27</ele>
        <time>2019-05-17T12:47:51Z</time>
      </trkpt>
      <trkpt lat="48.99728" lon="2.07328">
        <ele>28</ele>
        <time>2019-05-17T12:47:57Z</time>
      </trkpt>
      <trkpt lat="48.99737" lon="2.07329">
        <ele>28</ele>
        <time>2019-05-17T12:48:04Z</time>
      </trkpt>
      <trkpt lat="48.99747" lon="2.0733">
        <ele>29</ele>
        <time>2019-05-17T12:48:11Z</time>
      </trkpt>
      <trkpt lat="48.99757" lon="2.0733">
        <ele>29</ele>
        <time>2019-05-17T12:48:18Z</time>
      </trkpt>
      <trkpt lat="48.99767" lon="2.07329">
        <ele>29</ele>
        <time>2019-05-17T12:48:26Z</time>
      </trkpt>
      <trkpt lat="48.99776" lon="2.07327">
        <ele>28</ele>
        <time>2019-05-17T12:48:32Z</time>
      </trkpt>
      <trkpt lat="48.99786" lon="2.07326">
        <ele>28</ele>
        <time>2019-05-17T12:48:40Z</time>
      </trkpt>
      <trkpt lat="48.99795" lon="2.07325">
        <ele>29</ele>
        <time>2019-05-17T12:48:47Z</time>
      </trkpt>
      <trkpt lat="48.99803" lon="2.07318">
        <ele>29</ele>
        <time>2019-05-17T12:48:55Z</time>
      </trkpt>
      <trkpt lat="48.99813" lon="2.07315">
        <ele>29</ele>
        <time>2019-05-17T12:49:03Z</time>
      </trkpt>
      <trkpt lat="48.99823" lon="2.07314">
        <ele>30</ele>
        <time>2019-05-17T12:49:10Z</time>
      </trkpt>
      <trkpt lat="48.99833" lon="2.07311">
        <ele>30</ele>
        <time>2019-05-17T12:49:17Z</time>
      </trkpt>
      <trkpt lat="48.99844" lon="2.0731">
        <ele>31</ele>
        <time>2019-05-17T12:49:23Z</time>
      </trkpt>
      <trkpt lat="48.99853" lon="2.07311">
        <ele>31</ele>
        <time>2019-05-17T12:49:30Z</time>
      </trkpt>
      <trkpt lat="48.99862" lon="2.07311">
        <ele>31</ele>
        <time>2019-05-17T12:49:37Z</time>
      </trkpt>
      <trkpt lat="48.99873" lon="2.07311">
        <ele>31</ele>
        <time>2019-05-17T12:49:43Z</time>
      </trkpt>
      <trkpt lat="48.99882" lon="2.07311">
        <ele>31</ele>
        <time>2019-05-17T12:49:50Z</time>
      </trkpt>
      <trkpt lat="48.99891" lon="2.07311">
        <ele>31</ele>
        <time>2019-05-17T12:49:56Z</time>
      </trkpt>
      <trkpt lat="48.99901" lon="2.0731">
        <ele>31</ele>
        <time>2019-05-17T12:50:04Z</time>
      </trkpt>
      <trkpt lat="48.99911" lon="2.07309">
        <ele>32</ele>
        <time>2019-05-17T12:50:11Z</time>
      </trkpt>
      <trkpt lat="48.9992" lon="2.07309">
        <ele>32</ele>
        <time>2019-05-17T12:50:18Z</time>
      </trkpt>
      <trkpt lat="48.9993" lon="2.07305">
        <ele>32</ele>
        <time>2019-05-17T12:50:25Z</time>
      </trkpt>
      <trkpt lat="48.9994" lon="2.07302">
        <ele>32</ele>
        <time>2019-05-17T12:50:33Z</time>
      </trkpt>
      <trkpt lat="48.99949" lon="2.07302">
        <ele>32</ele>
        <time>2019-05-17T12:50:39Z</time>
      </trkpt>
      <trkpt lat="48.99959" lon="2.07301">
        <ele>32</ele>
        <time>2019-05-17T12:50:46Z</time>
      </trkpt>
      <trkpt lat="48.99968" lon="2.07302">
        <ele>32</ele>
        <time>2019-05-17T12:50:52Z</time>
      </trkpt>
      <trkpt lat="48.99978" lon="2.073">
        <ele>32</ele>
        <time>2019-05-17T12:51:00Z</time>
      </trkpt>
      <trkpt lat="48.99987" lon="2.07296">
        <ele>32</ele>
        <time>2019-05-17T12:51:07Z</time>
      </trkpt>
      <trkpt lat="48.99996" lon="2.07295">
        <ele>32</ele>
        <time>2019-05-17T12:51:13Z</time>
      </trkpt>
      <trkpt lat="49.00006" lon="2.07293">
        <ele>32</ele>
        <time>2019-05-17T12:51:20Z</time>
      </trkpt>
      <trkpt lat="49.00015" lon="2.07292">
        <ele>32</ele>
        <time>2019-05-17T12:51:27Z</time>
      </trkpt>
      <trkpt lat="49.00025" lon="2.07291">
        <ele>32</ele>
        <time>2019-05-17T12:51:34Z</time>
      </trkpt>
      <trkpt lat="49.00035" lon="2.07291">
        <ele>32</ele>
        <time>2019-05-17T12:51:41Z</time>
      </trkpt>
      <trkpt lat="49.00044" lon="2.07291">
        <ele>32</ele>
        <time>2019-05-17T12:51:47Z</time>
      </trkpt>
      <trkpt lat="49.00054" lon="2.07289">
        <ele>32</ele>
        <time>2019-05-17T12:51:54Z</time>
      </trkpt>
      <trkpt lat="49.00064" lon="2.07288">
        <ele>32</ele>
        <time>2019-05-17T12:52:02Z</time>
      </trkpt>
      <trkpt lat="49.00074" lon="2.07287">
        <ele>32</ele>
        <time>2019-05-17T12:52:08Z</time>
      </trkpt>
      <trkpt lat="49.00163" lon="2.07277">
        <ele>32</ele>
        <time>2019-05-17T12:53:10Z</time>
      </trkpt>
      <trkpt lat="49.00173" lon="2.07281">
        <ele>33</ele>
        <time>2019-05-17T12:53:17Z</time>
      </trkpt>
      <trkpt lat="49.00183" lon="2.07282">
        <ele>33</ele>
        <time>2019-05-17T12:53:23Z</time>
      </trkpt>
      <trkpt lat="49.00193" lon="2.07283">
        <ele>33</ele>
        <time>2019-05-17T12:53:31Z</time>
      </trkpt>
      <trkpt lat="49.00203" lon="2.07286">
        <ele>33</ele>
        <time>2019-05-17T12:53:38Z</time>
      </trkpt>
      <trkpt lat="49.00212" lon="2.07293">
        <ele>34</ele>
        <time>2019-05-17T12:53:44Z</time>
      </trkpt>
      <trkpt lat="49.00222" lon="2.07297">
        <ele>34</ele>
        <time>2019-05-17T12:53:52Z</time>
      </trkpt>
      <trkpt lat="49.00231" lon="2.07303">
        <ele>35</ele>
        <time>2019-05-17T12:54:02Z</time>
      </trkpt>
      <trkpt lat="49.0024" lon="2.07306">
        <ele>35</ele>
        <time>2019-05-17T12:54:12Z</time>
      </trkpt>
      <trkpt lat="49.00248" lon="2.07299">
        <ele>34</ele>
        <time>2019-05-17T12:54:20Z</time>
      </trkpt>
      <trkpt lat="49.00256" lon="2.07288">
        <ele>33</ele>
        <time>2019-05-17T12:54:43Z</time>
      </trkpt>
      <trkpt lat="49.00261" lon="2.07277">
        <ele>32</ele>
        <time>2019-05-17T12:54:48Z</time>
      </trkpt>
      <trkpt lat="49.00253" lon="2.07284">
        <ele>33</ele>
        <time>2019-05-17T12:55:17Z</time>
      </trkpt>
      <trkpt lat="49.00253" lon="2.07298">
        <ele>34</ele>
        <time>2019-05-17T12:55:22Z</time>
      </trkpt>
      <trkpt lat="49.00258" lon="2.07311">
        <ele>35</ele>
        <time>2019-05-17T12:55:29Z</time>
      </trkpt>
      <trkpt lat="49.00267" lon="2.07315">
        <ele>35</ele>
        <time>2019-05-17T12:55:37Z</time>
      </trkpt>
      <trkpt lat="49.00277" lon="2.0732">
        <ele>35</ele>
        <time>2019-05-17T12:55:46Z</time>
      </trkpt>
      <trkpt lat="49.00286" lon="2.07323">
        <ele>35</ele>
        <time>2019-05-17T12:55:57Z</time>
      </trkpt>
      <trkpt lat="49.00295" lon="2.07325">
        <ele>34</ele>
        <time>2019-05-17T12:56:06Z</time>
      </trkpt>
      <trkpt lat="49.00305" lon="2.07321">
        <ele>34</ele>
        <time>2019-05-17T12:56:14Z</time>
      </trkpt>
      <trkpt lat="49.00315" lon="2.07322">
        <ele>35</ele>
        <time>2019-05-17T12:56:17Z</time>
      </trkpt>
      <trkpt lat="49.00325" lon="2.07323">
        <ele>35</ele>
        <time>2019-05-17T12:56:28Z</time>
      </trkpt>
      <trkpt lat="49.00333" lon="2.07317">
        <ele>35</ele>
        <time>2019-05-17T12:56:36Z</time>
      </trkpt>
      <trkpt lat="49.00343" lon="2.07322">
        <ele>35</ele>
        <time>2019-05-17T12:56:40Z</time>
      </trkpt>
      <trkpt lat="49.00353" lon="2.07316">
        <ele>34</ele>
        <time>2019-05-17T12:56:46Z</time>
      </trkpt>
      <trkpt lat="49.00363" lon="2.07317">
        <ele>34</ele>
        <time>2019-05-17T12:56:56Z</time>
      </trkpt>
      <trkpt lat="49.00373" lon="2.07316">
        <ele>34</ele>
        <time>2019-05-17T12:57:04Z</time>
      </trkpt>
      <trkpt lat="49.00384" lon="2.07324">
        <ele>34</ele>
        <time>2019-05-17T12:57:12Z</time>
      </trkpt>
      <trkpt lat="49.00393" lon="2.07322">
        <ele>34</ele>
        <time>2019-05-17T12:57:18Z</time>
      </trkpt>
      <trkpt lat="49.00404" lon="2.07322">
        <ele>35</ele>
        <time>2019-05-17T12:57:24Z</time>
      </trkpt>
      <trkpt lat="49.00413" lon="2.07321">
        <ele>35</ele>
        <time>2019-05-17T12:57:29Z</time>
      </trkpt>
      <trkpt lat="49.00422" lon="2.07321">
        <ele>36</ele>
        <time>2019-05-17T12:57:35Z</time>
      </trkpt>
      <trkpt lat="49.00432" lon="2.07319">
        <ele>35</ele>
        <time>2019-05-17T12:57:43Z</time>
      </trkpt>
      <trkpt lat="49.0044" lon="2.07316">
        <ele>35</ele>
        <time>2019-05-17T12:57:47Z</time>
      </trkpt>
      <trkpt lat="49.0045" lon="2.0731">
        <ele>35</ele>
        <time>2019-05-17T12:57:54Z</time>
      </trkpt>
      <trkpt lat="49.00459" lon="2.07303">
        <ele>35</ele>
        <time>2019-05-17T12:58:02Z</time>
      </trkpt>
      <trkpt lat="49.00467" lon="2.07294">
        <ele>35</ele>
        <time>2019-05-17T12:58:10Z</time>
      </trkpt>
      <trkpt lat="49.00476" lon="2.07285">
        <ele>34</ele>
        <time>2019-05-17T12:58:17Z</time>
      </trkpt>
      <trkpt lat="49.00485" lon="2.07279">
        <ele>34</ele>
        <time>2019-05-17T12:58:27Z</time>
      </trkpt>
      <trkpt lat="49.00493" lon="2.07273">
        <ele>34</ele>
        <time>2019-05-17T12:58:32Z</time>
      </trkpt>
      <trkpt lat="49.00501" lon="2.07266">
        <ele>36</ele>
        <time>2019-05-17T12:58:39Z</time>
      </trkpt>
      <trkpt lat="49.00508" lon="2.07256">
        <ele>36</ele>
        <time>2019-05-17T12:58:48Z</time>
      </trkpt>
      <trkpt lat="49.00514" lon="2.07244">
        <ele>34</ele>
        <time>2019-05-17T12:58:54Z</time>
      </trkpt>
      <trkpt lat="49.00522" lon="2.07236">
        <ele>35</ele>
        <time>2019-05-17T12:58:59Z</time>
      </trkpt>
      <trkpt lat="49.0053" lon="2.07225">
        <ele>35</ele>
        <time>2019-05-17T12:59:07Z</time>
      </trkpt>
      <trkpt lat="49.00538" lon="2.07216">
        <ele>35</ele>
        <time>2019-05-17T12:59:13Z</time>
      </trkpt>
      <trkpt lat="49.00543" lon="2.07204">
        <ele>35</ele>
        <time>2019-05-17T12:59:18Z</time>
      </trkpt>
      <trkpt lat="49.00552" lon="2.07202">
        <ele>35</ele>
        <time>2019-05-17T12:59:25Z</time>
      </trkpt>
      <trkpt lat="49.0056" lon="2.07192">
        <ele>35</ele>
        <time>2019-05-17T12:59:32Z</time>
      </trkpt>
      <trkpt lat="49.00567" lon="2.07178">
        <ele>35</ele>
        <time>2019-05-17T12:59:39Z</time>
      </trkpt>
      <trkpt lat="49.00575" lon="2.07172">
        <ele>36</ele>
        <time>2019-05-17T12:59:47Z</time>
      </trkpt>
      <trkpt lat="49.00582" lon="2.07163">
        <ele>35</ele>
        <time>2019-05-17T12:59:53Z</time>
      </trkpt>
      <trkpt lat="49.00585" lon="2.07149">
        <ele>35</ele>
        <time>2019-05-17T13:00:00Z</time>
      </trkpt>
      <trkpt lat="49.00594" lon="2.07141">
        <ele>35</ele>
        <time>2019-05-17T13:00:05Z</time>
      </trkpt>
      <trkpt lat="49.00601" lon="2.07133">
        <ele>34</ele>
        <time>2019-05-17T13:00:14Z</time>
      </trkpt>
      <trkpt lat="49.00609" lon="2.07126">
        <ele>34</ele>
        <time>2019-05-17T13:00:24Z</time>
      </trkpt>
      <trkpt lat="49.00617" lon="2.07117">
        <ele>34</ele>
        <time>2019-05-17T13:00:29Z</time>
      </trkpt>
      <trkpt lat="49.00624" lon="2.07108">
        <ele>34</ele>
        <time>2019-05-17T13:00:35Z</time>
      </trkpt>
      <trkpt lat="49.00635" lon="2.07104">
        <ele>35</ele>
        <time>2019-05-17T13:00:44Z</time>
      </trkpt>
      <trkpt lat="49.00639" lon="2.0709">
        <ele>35</ele>
        <time>2019-05-17T13:00:52Z</time>
      </trkpt>
      <trkpt lat="49.00648" lon="2.0708">
        <ele>31</ele>
        <time>2019-05-17T13:00:58Z</time>
      </trkpt>
      <trkpt lat="49.00656" lon="2.07071">
        <ele>32</ele>
        <time>2019-05-17T13:01:06Z</time>
      </trkpt>
      <trkpt lat="49.00662" lon="2.0706">
        <ele>30</ele>
        <time>2019-05-17T13:01:12Z</time>
      </trkpt>
      <trkpt lat="49.00669" lon="2.07049">
        <ele>35</ele>
        <time>2019-05-17T13:01:21Z</time>
      </trkpt>
      <trkpt lat="49.00677" lon="2.07039">
        <ele>34</ele>
        <time>2019-05-17T13:01:27Z</time>
      </trkpt>
      <trkpt lat="49.00684" lon="2.07028">
        <ele>33</ele>
        <time>2019-05-17T13:01:39Z</time>
      </trkpt>
      <trkpt lat="49.00693" lon="2.0702">
        <ele>33</ele>
        <time>2019-05-17T13:01:45Z</time>
      </trkpt>
      <trkpt lat="49.00702" lon="2.07013">
        <ele>34</ele>
        <time>2019-05-17T13:01:51Z</time>
      </trkpt>
      <trkpt lat="49.0071" lon="2.07005">
        <ele>34</ele>
        <time>2019-05-17T13:01:58Z</time>
      </trkpt>
      <trkpt lat="49.00719" lon="2.06997">
        <ele>30</ele>
        <time>2019-05-17T13:02:04Z</time>
      </trkpt>
      <trkpt lat="49.00726" lon="2.06986">
        <ele>31</ele>
        <time>2019-05-17T13:02:13Z</time>
      </trkpt>
      <trkpt lat="49.00735" lon="2.06979">
        <ele>31</ele>
        <time>2019-05-17T13:02:27Z</time>
      </trkpt>
      <trkpt lat="49.00743" lon="2.06971">
        <ele>30</ele>
        <time>2019-05-17T13:02:35Z</time>
      </trkpt>
      <trkpt lat="49.00748" lon="2.06958">
        <ele>29</ele>
        <time>2019-05-17T13:02:40Z</time>
      </trkpt>
      <trkpt lat="49.00757" lon="2.06945">
        <ele>33</ele>
        <time>2019-05-17T13:02:45Z</time>
      </trkpt>
      <trkpt lat="49.00763" lon="2.06934">
        <ele>32</ele>
        <time>2019-05-17T13:02:51Z</time>
      </trkpt>
      <trkpt lat="49.00772" lon="2.06928">
        <ele>32</ele>
        <time>2019-05-17T13:02:59Z</time>
      </trkpt>
      <trkpt lat="49.00779" lon="2.06917">
        <ele>32</ele>
        <time>2019-05-17T13:03:05Z</time>
      </trkpt>
      <trkpt lat="49.00788" lon="2.06914">
        <ele>29</ele>
        <time>2019-05-17T13:03:09Z</time>
      </trkpt>
      <trkpt lat="49.00798" lon="2.06909">
        <ele>30</ele>
        <time>2019-05-17T13:03:16Z</time>
      </trkpt>
      <trkpt lat="49.00809" lon="2.06908">
        <ele>31</ele>
        <time>2019-05-17T13:03:21Z</time>
      </trkpt>
      <trkpt lat="49.00817" lon="2.06902">
        <ele>31</ele>
        <time>2019-05-17T13:03:29Z</time>
      </trkpt>
      <trkpt lat="49.00825" lon="2.06895">
        <ele>31</ele>
        <time>2019-05-17T13:03:35Z</time>
      </trkpt>
      <trkpt lat="49.0083" lon="2.06882">
        <ele>30</ele>
        <time>2019-05-17T13:03:45Z</time>
      </trkpt>
      <trkpt lat="49.00837" lon="2.06873">
        <ele>33</ele>
        <time>2019-05-17T13:03:52Z</time>
      </trkpt>
      <trkpt lat="49.00842" lon="2.0686">
        <ele>33</ele>
        <time>2019-05-17T13:03:59Z</time>
      </trkpt>
      <trkpt lat="49.0085" lon="2.0685">
        <ele>32</ele>
        <time>2019-05-17T13:04:07Z</time>
      </trkpt>
      <trkpt lat="49.00859" lon="2.06845">
        <ele>33</ele>
        <time>2019-05-17T13:04:12Z</time>
      </trkpt>
      <trkpt lat="49.00869" lon="2.06838">
        <ele>33</ele>
        <time>2019-05-17T13:04:16Z</time>
      </trkpt>
      <trkpt lat="49.00876" lon="2.0683">
        <ele>29</ele>
        <time>2019-05-17T13:04:24Z</time>
      </trkpt>
      <trkpt lat="49.00879" lon="2.06814">
        <ele>29</ele>
        <time>2019-05-17T13:04:30Z</time>
      </trkpt>
      <trkpt lat="49.00889" lon="2.06811">
        <ele>29</ele>
        <time>2019-05-17T13:04:37Z</time>
      </trkpt>
      <trkpt lat="49.00881" lon="2.06802">
        <ele>29</ele>
        <time>2019-05-17T13:04:46Z</time>
      </trkpt>
      <trkpt lat="49.00873" lon="2.06789">
        <ele>28</ele>
        <time>2019-05-17T13:04:51Z</time>
      </trkpt>
      <trkpt lat="49.00867" lon="2.06779">
        <ele>28</ele>
        <time>2019-05-17T13:04:55Z</time>
      </trkpt>
      <trkpt lat="49.00859" lon="2.06771">
        <ele>27</ele>
        <time>2019-05-17T13:04:59Z</time>
      </trkpt>
      <trkpt lat="49.00855" lon="2.06756">
        <ele>27</ele>
        <time>2019-05-17T13:05:04Z</time>
      </trkpt>
      <trkpt lat="49.0085" lon="2.06743">
        <ele>25</ele>
        <time>2019-05-17T13:05:10Z</time>
      </trkpt>
      <trkpt lat="49.00842" lon="2.06736">
        <ele>25</ele>
        <time>2019-05-17T13:05:16Z</time>
      </trkpt>
      <trkpt lat="49.00834" lon="2.06728">
        <ele>25</ele>
        <time>2019-05-17T13:05:23Z</time>
      </trkpt>
      <trkpt lat="49.00834" lon="2.06714">
        <ele>24</ele>
        <time>2019-05-17T13:05:26Z</time>
      </trkpt>
      <trkpt lat="49.00825" lon="2.06707">
        <ele>23</ele>
        <time>2019-05-17T13:05:32Z</time>
      </trkpt>
      <trkpt lat="49.0082" lon="2.06695">
        <ele>23</ele>
        <time>2019-05-17T13:05:42Z</time>
      </trkpt>
      <trkpt lat="49.00814" lon="2.06683">
        <ele>23</ele>
        <time>2019-05-17T13:05:49Z</time>
      </trkpt>
      <trkpt lat="49.00807" lon="2.06674">
        <ele>23</ele>
        <time>2019-05-17T13:05:52Z</time>
      </trkpt>
      <trkpt lat="49.008" lon="2.06664">
        <ele>23</ele>
        <time>2019-05-17T13:05:59Z</time>
      </trkpt>
      <trkpt lat="49.00793" lon="2.06654">
        <ele>23</ele>
        <time>2019-05-17T13:06:06Z</time>
      </trkpt>
      <trkpt lat="49.00793" lon="2.06639">
        <ele>23</ele>
        <time>2019-05-17T13:06:13Z</time>
      </trkpt>
      <trkpt lat="49.00793" lon="2.06624">
        <ele>23</ele>
        <time>2019-05-17T13:06:21Z</time>
      </trkpt>
      <trkpt lat="49.00796" lon="2.06611">
        <ele>23</ele>
        <time>2019-05-17T13:06:28Z</time>
      </trkpt>
      <trkpt lat="49.008" lon="2.06597">
        <ele>22</ele>
        <time>2019-05-17T13:06:37Z</time>
      </trkpt>
      <trkpt lat="49.00805" lon="2.06585">
        <ele>22</ele>
        <time>2019-05-17T13:06:44Z</time>
      </trkpt>
      <trkpt lat="49.00812" lon="2.06575">
        <ele>22</ele>
        <time>2019-05-17T13:06:51Z</time>
      </trkpt>
      <trkpt lat="49.00819" lon="2.06564">
        <ele>22</ele>
        <time>2019-05-17T13:06:58Z</time>
      </trkpt>
      <trkpt lat="49.00827" lon="2.06558">
        <ele>22</ele>
        <time>2019-05-17T13:07:04Z</time>
      </trkpt>
      <trkpt lat="49.00833" lon="2.06545">
        <ele>22</ele>
        <time>2019-05-17T13:07:11Z</time>
      </trkpt>
      <trkpt lat="49.00838" lon="2.06533">
        <ele>21</ele>
        <time>2019-05-17T13:07:19Z</time>
      </trkpt>
      <trkpt lat="49.00844" lon="2.06522">
        <ele>21</ele>
        <time>2019-05-17T13:07:26Z</time>
      </trkpt>
      <trkpt lat="49.00853" lon="2.06514">
        <ele>21</ele>
        <time>2019-05-17T13:07:33Z</time>
      </trkpt>
      <trkpt lat="49.00864" lon="2.06508">
        <ele>21</ele>
        <time>2019-05-17T13:07:38Z</time>
      </trkpt>
      <trkpt lat="49.00873" lon="2.06504">
        <ele>21</ele>
        <time>2019-05-17T13:07:42Z</time>
      </trkpt>
      <trkpt lat="49.0088" lon="2.06496">
        <ele>21</ele>
        <time>2019-05-17T13:07:55Z</time>
      </trkpt>
      <trkpt lat="49.00885" lon="2.06484">
        <ele>21</ele>
        <time>2019-05-17T13:08:06Z</time>
      </trkpt>
      <trkpt lat="49.00892" lon="2.06475">
        <ele>21</ele>
        <time>2019-05-17T13:08:12Z</time>
      </trkpt>
      <trkpt lat="49.00897" lon="2.06463">
        <ele>21</ele>
        <time>2019-05-17T13:08:21Z</time>
      </trkpt>
      <trkpt lat="49.00904" lon="2.06454">
        <ele>21</ele>
        <time>2019-05-17T13:08:29Z</time>
      </trkpt>
      <trkpt lat="49.00912" lon="2.06448">
        <ele>21</ele>
        <time>2019-05-17T13:08:35Z</time>
      </trkpt>
      <trkpt lat="49.00917" lon="2.06436">
        <ele>22</ele>
        <time>2019-05-17T13:08:41Z</time>
      </trkpt>
      <trkpt lat="49.00926" lon="2.06429">
        <ele>22</ele>
        <time>2019-05-17T13:08:49Z</time>
      </trkpt>
      <trkpt lat="49.00933" lon="2.06417">
        <ele>22</ele>
        <time>2019-05-17T13:08:55Z</time>
      </trkpt>
      <trkpt lat="49.00938" lon="2.06407">
        <ele>23</ele>
        <time>2019-05-17T13:09:03Z</time>
      </trkpt>
      <trkpt lat="49.00946" lon="2.06398">
        <ele>23</ele>
        <time>2019-05-17T13:09:09Z</time>
      </trkpt>
      <trkpt lat="49.00948" lon="2.06379">
        <ele>24</ele>
        <time>2019-05-17T13:09:17Z</time>
      </trkpt>
      <trkpt lat="49.00956" lon="2.06371">
        <ele>24</ele>
        <time>2019-05-17T13:09:25Z</time>
      </trkpt>
      <trkpt lat="49.00963" lon="2.06358">
        <ele>24</ele>
        <time>2019-05-17T13:09:31Z</time>
      </trkpt>
      <trkpt lat="49.00966" lon="2.06344">
        <ele>24</ele>
        <time>2019-05-17T13:09:39Z</time>
      </trkpt>
      <trkpt lat="49.00972" lon="2.06331">
        <ele>24</ele>
        <time>2019-05-17T13:09:44Z</time>
      </trkpt>
      <trkpt lat="49.00981" lon="2.06327">
        <ele>24</ele>
        <time>2019-05-17T13:09:56Z</time>
      </trkpt>
      <trkpt lat="49.00985" lon="2.06314">
        <ele>24</ele>
        <time>2019-05-17T13:10:13Z</time>
      </trkpt>
      <trkpt lat="49.00993" lon="2.06301">
        <ele>24</ele>
        <time>2019-05-17T13:10:18Z</time>
      </trkpt>
      <trkpt lat="49.00999" lon="2.0629">
        <ele>24</ele>
        <time>2019-05-17T13:10:27Z</time>
      </trkpt>
      <trkpt lat="49.01005" lon="2.0628">
        <ele>26</ele>
        <time>2019-05-17T13:10:32Z</time>
      </trkpt>
      <trkpt lat="49.01013" lon="2.06273">
        <ele>26</ele>
        <time>2019-05-17T13:10:36Z</time>
      </trkpt>
      <trkpt lat="49.01021" lon="2.06265">
        <ele>26</ele>
        <time>2019-05-17T13:10:44Z</time>
      </trkpt>
      <trkpt lat="49.01025" lon="2.06252">
        <ele>26</ele>
        <time>2019-05-17T13:10:54Z</time>
      </trkpt>
      <trkpt lat="49.01034" lon="2.06246">
        <ele>26</ele>
        <time>2019-05-17T13:10:59Z</time>
      </trkpt>
      <trkpt lat="49.01043" lon="2.06235">
        <ele>26</ele>
        <time>2019-05-17T13:11:05Z</time>
      </trkpt>
      <trkpt lat="49.01055" lon="2.06232">
        <ele>27</ele>
        <time>2019-05-17T13:11:11Z</time>
      </trkpt>
      <trkpt lat="49.01062" lon="2.06222">
        <ele>27</ele>
        <time>2019-05-17T13:11:18Z</time>
      </trkpt>
      <trkpt lat="49.01069" lon="2.06211">
        <ele>27</ele>
        <time>2019-05-17T13:11:26Z</time>
      </trkpt>
      <trkpt lat="49.01077" lon="2.06202">
        <ele>27</ele>
        <time>2019-05-17T13:11:34Z</time>
      </trkpt>
      <trkpt lat="49.01083" lon="2.06186">
        <ele>27</ele>
        <time>2019-05-17T13:11:40Z</time>
      </trkpt>
      <trkpt lat="49.0109" lon="2.06174">
        <ele>27</ele>
        <time>2019-05-17T13:11:48Z</time>
      </trkpt>
      <trkpt lat="49.01099" lon="2.06167">
        <ele>26</ele>
        <time>2019-05-17T13:11:51Z</time>
      </trkpt>
      <trkpt lat="49.01107" lon="2.06156">
        <ele>25</ele>
        <time>2019-05-17T13:12:02Z</time>
      </trkpt>
      <trkpt lat="49.01115" lon="2.06147">
        <ele>25</ele>
        <time>2019-05-17T13:12:09Z</time>
      </trkpt>
      <trkpt lat="49.01122" lon="2.06137">
        <ele>25</ele>
        <time>2019-05-17T13:12:13Z</time>
      </trkpt>
      <trkpt lat="49.01129" lon="2.06129">
        <ele>25</ele>
        <time>2019-05-17T13:12:21Z</time>
      </trkpt>
      <trkpt lat="49.01137" lon="2.06121">
        <ele>24</ele>
        <time>2019-05-17T13:12:27Z</time>
      </trkpt>
      <trkpt lat="49.01141" lon="2.06107">
        <ele>24</ele>
        <time>2019-05-17T13:12:35Z</time>
      </trkpt>
      <trkpt lat="49.01149" lon="2.06096">
        <ele>24</ele>
        <time>2019-05-17T13:12:46Z</time>
      </trkpt>
      <trkpt lat="49.01156" lon="2.06086">
        <ele>23</ele>
        <time>2019-05-17T13:12:55Z</time>
      </trkpt>
      <trkpt lat="49.01164" lon="2.06076">
        <ele>23</ele>
        <time>2019-05-17T13:13:02Z</time>
      </trkpt>
      <trkpt lat="49.01168" lon="2.06064">
        <ele>24</ele>
        <time>2019-05-17T13:13:09Z</time>
      </trkpt>
      <trkpt lat="49.01175" lon="2.06052">
        <ele>24</ele>
        <time>2019-05-17T13:13:18Z</time>
      </trkpt>
      <trkpt lat="49.01177" lon="2.06037">
        <ele>24</ele>
        <time>2019-05-17T13:13:28Z</time>
      </trkpt>
      <trkpt lat="49.01185" lon="2.06025">
        <ele>25</ele>
        <time>2019-05-17T13:13:35Z</time>
      </trkpt>
      <trkpt lat="49.01192" lon="2.06015">
        <ele>25</ele>
        <time>2019-05-17T13:13:38Z</time>
      </trkpt>
      <trkpt lat="49.012" lon="2.06005">
        <ele>25</ele>
        <time>2019-05-17T13:13:45Z</time>
      </trkpt>
      <trkpt lat="49.01209" lon="2.06">
        <ele>25</ele>
        <time>2019-05-17T13:13:49Z</time>
      </trkpt>
      <trkpt lat="49.01216" lon="2.05993">
        <ele>25</ele>
        <time>2019-05-17T13:13:52Z</time>
      </trkpt>
      <trkpt lat="49.01224" lon="2.05982">
        <ele>25</ele>
        <time>2019-05-17T13:14:00Z</time>
      </trkpt>
      <trkpt lat="49.01229" lon="2.05971">
        <ele>25</ele>
        <time>2019-05-17T13:14:12Z</time>
      </trkpt>
      <trkpt lat="49.01236" lon="2.05961">
        <ele>25</ele>
        <time>2019-05-17T13:14:19Z</time>
      </trkpt>
      <trkpt lat="49.01241" lon="2.05948">
        <ele>25</ele>
        <time>2019-05-17T13:14:28Z</time>
      </trkpt>
      <trkpt lat="49.0125" lon="2.05939">
        <ele>25</ele>
        <time>2019-05-17T13:14:35Z</time>
      </trkpt>
      <trkpt lat="49.01256" lon="2.05929">
        <ele>26</ele>
        <time>2019-05-17T13:14:42Z</time>
      </trkpt>
      <trkpt lat="49.01258" lon="2.05915">
        <ele>26</ele>
        <time>2019-05-17T13:14:49Z</time>
      </trkpt>
      <trkpt lat="49.01266" lon="2.05903">
        <ele>25</ele>
        <time>2019-05-17T13:14:56Z</time>
      </trkpt>
      <trkpt lat="49.01276" lon="2.05898">
        <ele>25</ele>
        <time>2019-05-17T13:15:04Z</time>
      </trkpt>
      <trkpt lat="49.01285" lon="2.05893">
        <ele>25</ele>
        <time>2019-05-17T13:15:07Z</time>
      </trkpt>
      <trkpt lat="49.01292" lon="2.05882">
        <ele>25</ele>
        <time>2019-05-17T13:15:15Z</time>
      </trkpt>
      <trkpt lat="49.01298" lon="2.05869">
        <ele>25</ele>
        <time>2019-05-17T13:15:24Z</time>
      </trkpt>
      <trkpt lat="49.01305" lon="2.05857">
        <ele>25</ele>
        <time>2019-05-17T13:15:31Z</time>
      </trkpt>
      <trkpt lat="49.01308" lon="2.05842">
        <ele>24</ele>
        <time>2019-05-17T13:15:38Z</time>
      </trkpt>
      <trkpt lat="49.01315" lon="2.05833">
        <ele>24</ele>
        <time>2019-05-17T13:15:46Z</time>
      </trkpt>
      <trkpt lat="49.01323" lon="2.05824">
        <ele>24</ele>
        <time>2019-05-17T13:15:49Z</time>
      </trkpt>
      <trkpt lat="49.01327" lon="2.05811">
        <ele>24</ele>
        <time>2019-05-17T13:15:56Z</time>
      </trkpt>
      <trkpt lat="49.01336" lon="2.0581">
        <ele>24</ele>
        <time>2019-05-17T13:16:03Z</time>
      </trkpt>
      <trkpt lat="49.01342" lon="2.05799">
        <ele>24</ele>
        <time>2019-05-17T13:16:09Z</time>
      </trkpt>
      <trkpt lat="49.01349" lon="2.05783">
        <ele>23</ele>
        <time>2019-05-17T13:16:17Z</time>
      </trkpt>
      <trkpt lat="49.0136" lon="2.05778">
        <ele>23</ele>
        <time>2019-05-17T13:16:20Z</time>
      </trkpt>
      <trkpt lat="49.01369" lon="2.0577">
        <ele>23</ele>
        <time>2019-05-17T13:16:26Z</time>
      </trkpt>
      <trkpt lat="49.01377" lon="2.05761">
        <ele>23</ele>
        <time>2019-05-17T13:16:32Z</time>
      </trkpt>
      <trkpt lat="49.01384" lon="2.05752">
        <ele>23</ele>
        <time>2019-05-17T13:16:39Z</time>
      </trkpt>
      <trkpt lat="49.0139" lon="2.05741">
        <ele>22</ele>
        <time>2019-05-17T13:16:46Z</time>
      </trkpt>
      <trkpt lat="49.01396" lon="2.05729">
        <ele>21</ele>
        <time>2019-05-17T13:16:53Z</time>
      </trkpt>
      <trkpt lat="49.01403" lon="2.05719">
        <ele>21</ele>
        <time>2019-05-17T13:17:02Z</time>
      </trkpt>
      <trkpt lat="49.01414" lon="2.05717">
        <ele>21</ele>
        <time>2019-05-17T13:17:10Z</time>
      </trkpt>
      <trkpt lat="49.01415" lon="2.05702">
        <ele>21</ele>
        <time>2019-05-17T13:17:22Z</time>
      </trkpt>
      <trkpt lat="49.01423" lon="2.0569">
        <ele>20</ele>
        <time>2019-05-17T13:17:29Z</time>
      </trkpt>
      <trkpt lat="49.01432" lon="2.05682">
        <ele>20</ele>
        <time>2019-05-17T13:17:35Z</time>
      </trkpt>
      <trkpt lat="49.0144" lon="2.05672">
        <ele>20</ele>
        <time>2019-05-17T13:17:41Z</time>
      </trkpt>
      <trkpt lat="49.01446" lon="2.05661">
        <ele>20</ele>
        <time>2019-05-17T13:17:48Z</time>
      </trkpt>
      <trkpt lat="49.01451" lon="2.05648">
        <ele>20</ele>
        <time>2019-05-17T13:17:54Z</time>
      </trkpt>
      <trkpt lat="49.01458" lon="2.05639">
        <ele>20</ele>
        <time>2019-05-17T13:18:03Z</time>
      </trkpt>
      <trkpt lat="49.01461" lon="2.05624">
        <ele>20</ele>
        <time>2019-05-17T13:18:07Z</time>
      </trkpt>
      <trkpt lat="49.01467" lon="2.05613">
        <ele>20</ele>
        <time>2019-05-17T13:18:18Z</time>
      </trkpt>
      <trkpt lat="49.01476" lon="2.05601">
        <ele>20</ele>
        <time>2019-05-17T13:18:25Z</time>
      </trkpt>
      <trkpt lat="49.01485" lon="2.0559">
        <ele>21</ele>
        <time>2019-05-17T13:18:30Z</time>
      </trkpt>
      <trkpt lat="49.01491" lon="2.05579">
        <ele>21</ele>
        <time>2019-05-17T13:18:36Z</time>
      </trkpt>
      <trkpt lat="49.01498" lon="2.05569">
        <ele>21</ele>
        <time>2019-05-17T13:18:44Z</time>
      </trkpt>
      <trkpt lat="49.01503" lon="2.05557">
        <ele>21</ele>
        <time>2019-05-17T13:18:51Z</time>
      </trkpt>
      <trkpt lat="49.01509" lon="2.05545">
        <ele>21</ele>
        <time>2019-05-17T13:18:58Z</time>
      </trkpt>
      <trkpt lat="49.01515" lon="2.05532">
        <ele>22</ele>
        <time>2019-05-17T13:19:05Z</time>
      </trkpt>
      <trkpt lat="49.01513" lon="2.05518">
        <ele>22</ele>
        <time>2019-05-17T13:19:10Z</time>
      </trkpt>
      <trkpt lat="49.01521" lon="2.05509">
        <ele>22</ele>
        <time>2019-05-17T13:19:18Z</time>
      </trkpt>
      <trkpt lat="49.01526" lon="2.05497">
        <ele>22</ele>
        <time>2019-05-17T13:19:23Z</time>
      </trkpt>
      <trkpt lat="49.01531" lon="2.05486">
        <ele>22</ele>
        <time>2019-05-17T13:19:30Z</time>
      </trkpt>
      <trkpt lat="49.01539" lon="2.05475">
        <ele>22</ele>
        <time>2019-05-17T13:19:40Z</time>
      </trkpt>
      <trkpt lat="49.01546" lon="2.05462">
        <ele>21</ele>
        <time>2019-05-17T13:19:46Z</time>
      </trkpt>
      <trkpt lat="49.01554" lon="2.0545">
        <ele>21</ele>
        <time>2019-05-17T13:19:52Z</time>
      </trkpt>
      <trkpt lat="49.01557" lon="2.05437">
        <ele>21</ele>
        <time>2019-05-17T13:20:01Z</time>
      </trkpt>
      <trkpt lat="49.01568" lon="2.05435">
        <ele>21</ele>
        <time>2019-05-17T13:20:06Z</time>
      </trkpt>
      <trkpt lat="49.01573" lon="2.05423">
        <ele>21</ele>
        <time>2019-05-17T13:20:11Z</time>
      </trkpt>
      <trkpt lat="49.01579" lon="2.05409">
        <ele>21</ele>
        <time>2019-05-17T13:20:18Z</time>
      </trkpt>
      <trkpt lat="49.01583" lon="2.05394">
        <ele>21</ele>
        <time>2019-05-17T13:20:24Z</time>
      </trkpt>
      <trkpt lat="49.01591" lon="2.05386">
        <ele>21</ele>
        <time>2019-05-17T13:20:30Z</time>
      </trkpt>
      <trkpt lat="49.016" lon="2.05378">
        <ele>21</ele>
        <time>2019-05-17T13:20:35Z</time>
      </trkpt>
      <trkpt lat="49.01607" lon="2.05369">
        <ele>21</ele>
        <time>2019-05-17T13:20:42Z</time>
      </trkpt>
      <trkpt lat="49.01616" lon="2.05358">
        <ele>21</ele>
        <time>2019-05-17T13:20:48Z</time>
      </trkpt>
      <trkpt lat="49.01623" lon="2.05348">
        <ele>21</ele>
        <time>2019-05-17T13:20:57Z</time>
      </trkpt>
      <trkpt lat="49.01626" lon="2.05333">
        <ele>21</ele>
        <time>2019-05-17T13:21:03Z</time>
      </trkpt>
      <trkpt lat="49.01633" lon="2.05325">
        <ele>21</ele>
        <time>2019-05-17T13:21:10Z</time>
      </trkpt>
      <trkpt lat="49.01639" lon="2.05313">
        <ele>21</ele>
        <time>2019-05-17T13:21:19Z</time>
      </trkpt>
      <trkpt lat="49.01647" lon="2.05301">
        <ele>21</ele>
        <time>2019-05-17T13:21:27Z</time>
      </trkpt>
      <trkpt lat="49.01652" lon="2.05289">
        <ele>21</ele>
        <time>2019-05-17T13:21:35Z</time>
      </trkpt>
      <trkpt lat="49.01658" lon="2.05276">
        <ele>21</ele>
        <time>2019-05-17T13:21:43Z</time>
      </trkpt>
      <trkpt lat="49.01665" lon="2.05266">
        <ele>21</ele>
        <time>2019-05-17T13:21:48Z</time>
      </trkpt>
      <trkpt lat="49.01673" lon="2.05253">
        <ele>22</ele>
        <time>2019-05-17T13:21:54Z</time>
      </trkpt>
      <trkpt lat="49.0168" lon="2.05243">
        <ele>22</ele>
        <time>2019-05-17T13:22:01Z</time>
      </trkpt>
      <trkpt lat="49.01686" lon="2.05234">
        <ele>22</ele>
        <time>2019-05-17T13:22:10Z</time>
      </trkpt>
      <trkpt lat="49.0169" lon="2.05217">
        <ele>22</ele>
        <time>2019-05-17T13:22:18Z</time>
      </trkpt>
      <trkpt lat="49.01698" lon="2.05211">
        <ele>22</ele>
        <time>2019-05-17T13:22:23Z</time>
      </trkpt>
      <trkpt lat="49.01705" lon="2.052">
        <ele>22</ele>
        <time>2019-05-17T13:22:30Z</time>
      </trkpt>
      <trkpt lat="49.01713" lon="2.0519">
        <ele>22</ele>
        <time>2019-05-17T13:22:37Z</time>
      </trkpt>
      <trkpt lat="49.01723" lon="2.05183">
        <ele>22</ele>
        <time>2019-05-17T13:22:45Z</time>
      </trkpt>
      <trkpt lat="49.0173" lon="2.05174">
        <ele>22</ele>
        <time>2019-05-17T13:22:50Z</time>
      </trkpt>
      <trkpt lat="49.01735" lon="2.05159">
        <ele>23</ele>
        <time>2019-05-17T13:22:56Z</time>
      </trkpt>
      <trkpt lat="49.01741" lon="2.05146">
        <ele>23</ele>
        <time>2019-05-17T13:23:04Z</time>
      </trkpt>
      <trkpt lat="49.01748" lon="2.05137">
        <ele>24</ele>
        <time>2019-05-17T13:23:09Z</time>
      </trkpt>
      <trkpt lat="49.0175" lon="2.05121">
        <ele>24</ele>
        <time>2019-05-17T13:23:18Z</time>
      </trkpt>
      <trkpt lat="49.01757" lon="2.05112">
        <ele>23</ele>
        <time>2019-05-17T13:23:23Z</time>
      </trkpt>
      <trkpt lat="49.01764" lon="2.05104">
        <ele>23</ele>
        <time>2019-05-17T13:23:30Z</time>
      </trkpt>
      <trkpt lat="49.0177" lon="2.05092">
        <ele>23</ele>
        <time>2019-05-17T13:23:36Z</time>
      </trkpt>
      <trkpt lat="49.01772" lon="2.05079">
        <ele>23</ele>
        <time>2019-05-17T13:23:44Z</time>
      </trkpt>
      <trkpt lat="49.01781" lon="2.05074">
        <ele>23</ele>
        <time>2019-05-17T13:23:50Z</time>
      </trkpt>
      <trkpt lat="49.01786" lon="2.0506">
        <ele>23</ele>
        <time>2019-05-17T13:23:55Z</time>
      </trkpt>
      <trkpt lat="49.01794" lon="2.05051">
        <ele>23</ele>
        <time>2019-05-17T13:24:00Z</time>
      </trkpt>
      <trkpt lat="49.01802" lon="2.05045">
        <ele>23</ele>
        <time>2019-05-17T13:24:05Z</time>
      </trkpt>
      <trkpt lat="49.01808" lon="2.05034">
        <ele>22</ele>
        <time>2019-05-17T13:24:11Z</time>
      </trkpt>
      <trkpt lat="49.01814" lon="2.05022">
        <ele>22</ele>
        <time>2019-05-17T13:24:19Z</time>
      </trkpt>
      <trkpt lat="49.01821" lon="2.05013">
        <ele>21</ele>
        <time>2019-05-17T13:24:25Z</time>
      </trkpt>
      <trkpt lat="49.01828" lon="2.05004">
        <ele>21</ele>
        <time>2019-05-17T13:24:30Z</time>
      </trkpt>
      <trkpt lat="49.01837" lon="2.04999">
        <ele>20</ele>
        <time>2019-05-17T13:24:34Z</time>
      </trkpt>
      <trkpt lat="49.01843" lon="2.04985">
        <ele>20</ele>
        <time>2019-05-17T13:24:41Z</time>
      </trkpt>
      <trkpt lat="49.01847" lon="2.04971">
        <ele>21</ele>
        <time>2019-05-17T13:24:52Z</time>
      </trkpt>
      <trkpt lat="49.01853" lon="2.04959">
        <ele>21</ele>
        <time>2019-05-17T13:25:00Z</time>
      </trkpt>
      <trkpt lat="49.01859" lon="2.04947">
        <ele>21</ele>
        <time>2019-05-17T13:25:06Z</time>
      </trkpt>
      <trkpt lat="49.01868" lon="2.0494">
        <ele>21</ele>
        <time>2019-05-17T13:25:12Z</time>
      </trkpt>
      <trkpt lat="49.01874" lon="2.0493">
        <ele>21</ele>
        <time>2019-05-17T13:25:18Z</time>
      </trkpt>
      <trkpt lat="49.01883" lon="2.04921">
        <ele>21</ele>
        <time>2019-05-17T13:25:24Z</time>
      </trkpt>
      <trkpt lat="49.0189" lon="2.04909">
        <ele>22</ele>
        <time>2019-05-17T13:25:32Z</time>
      </trkpt>
      <trkpt lat="49.01897" lon="2.049">
        <ele>22</ele>
        <time>2019-05-17T13:25:39Z</time>
      </trkpt>
      <trkpt lat="49.01905" lon="2.0489">
        <ele>22</ele>
        <time>2019-05-17T13:25:47Z</time>
      </trkpt>
      <trkpt lat="49.01914" lon="2.0488">
        <ele>22</ele>
        <time>2019-05-17T13:25:53Z</time>
      </trkpt>
      <trkpt lat="49.01921" lon="2.0487">
        <ele>22</ele>
        <time>2019-05-17T13:26:01Z</time>
      </trkpt>
      <trkpt lat="49.01928" lon="2.04858">
        <ele>22</ele>
        <time>2019-05-17T13:26:10Z</time>
      </trkpt>
      <trkpt lat="49.01937" lon="2.04852">
        <ele>22</ele>
        <time>2019-05-17T13:26:14Z</time>
      </trkpt>
      <trkpt lat="49.01944" lon="2.0484">
        <ele>22</ele>
        <time>2019-05-17T13:26:25Z</time>
      </trkpt>
      <trkpt lat="49.01954" lon="2.04827">
        <ele>24</ele>
        <time>2019-05-17T13:26:34Z</time>
      </trkpt>
      <trkpt lat="49.01962" lon="2.04819">
        <ele>24</ele>
        <time>2019-05-17T13:26:39Z</time>
      </trkpt>
      <trkpt lat="49.01968" lon="2.04808">
        <ele>24</ele>
        <time>2019-05-17T13:26:44Z</time>
      </trkpt>
      <trkpt lat="49.01975" lon="2.04797">
        <ele>24</ele>
        <time>2019-05-17T13:26:56Z</time>
      </trkpt>
      <trkpt lat="49.01977" lon="2.04783">
        <ele>25</ele>
        <time>2019-05-17T13:27:08Z</time>
      </trkpt>
      <trkpt lat="49.01984" lon="2.04769">
        <ele>25</ele>
        <time>2019-05-17T13:27:14Z</time>
      </trkpt>
      <trkpt lat="49.01993" lon="2.04759">
        <ele>25</ele>
        <time>2019-05-17T13:27:21Z</time>
      </trkpt>
      <trkpt lat="49.02003" lon="2.04756">
        <ele>25</ele>
        <time>2019-05-17T13:27:27Z</time>
      </trkpt>
      <trkpt lat="49.02012" lon="2.04752">
        <ele>25</ele>
        <time>2019-05-17T13:27:30Z</time>
      </trkpt>
      <trkpt lat="49.02022" lon="2.04747">
        <ele>23</ele>
        <time>2019-05-17T13:27:34Z</time>
      </trkpt>
      <trkpt lat="49.02033" lon="2.04738">
        <ele>23</ele>
        <time>2019-05-17T13:27:40Z</time>
      </trkpt>
      <trkpt lat="49.02042" lon="2.04729">
        <ele>22</ele>
        <time>2019-05-17T13:27:44Z</time>
      </trkpt>
      <trkpt lat="49.02051" lon="2.04726">
        <ele>22</ele>
        <time>2019-05-17T13:27:53Z</time>
      </trkpt>
      <trkpt lat="49.02057" lon="2.04714">
        <ele>22</ele>
        <time>2019-05-17T13:28:44Z</time>
      </trkpt>
      <trkpt lat="49.02066" lon="2.04704">
        <ele>22</ele>
        <time>2019-05-17T13:28:51Z</time>
      </trkpt>
      <trkpt lat="49.0207" lon="2.0469">
        <ele>21</ele>
        <time>2019-05-17T13:28:57Z</time>
      </trkpt>
      <trkpt lat="49.02076" lon="2.04678">
        <ele>21</ele>
        <time>2019-05-17T13:29:05Z</time>
      </trkpt>
      <trkpt lat="49.02082" lon="2.04669">
        <ele>20</ele>
        <time>2019-05-17T13:29:12Z</time>
      </trkpt>
      <trkpt lat="49.02094" lon="2.04668">
        <ele>21</ele>
        <time>2019-05-17T13:29:18Z</time>
      </trkpt>
      <trkpt lat="49.02104" lon="2.04673">
        <ele>21</ele>
        <time>2019-05-17T13:29:23Z</time>
      </trkpt>
      <trkpt lat="49.02113" lon="2.04675">
        <ele>21</ele>
        <time>2019-05-17T13:29:27Z</time>
      </trkpt>
      <trkpt lat="49.02123" lon="2.04673">
        <ele>21</ele>
        <time>2019-05-17T13:29:34Z</time>
      </trkpt>
      <trkpt lat="49.02131" lon="2.0468">
        <ele>21</ele>
        <time>2019-05-17T13:29:44Z</time>
      </trkpt>
      <trkpt lat="49.02141" lon="2.04675">
        <ele>21</ele>
        <time>2019-05-17T13:29:52Z</time>
      </trkpt>
      <trkpt lat="49.0215" lon="2.0467">
        <ele>21</ele>
        <time>2019-05-17T13:30:04Z</time>
      </trkpt>
      <trkpt lat="49.02154" lon="2.04657">
        <ele>21</ele>
        <time>2019-05-17T13:30:11Z</time>
      </trkpt>
      <trkpt lat="49.02161" lon="2.04647">
        <ele>21</ele>
        <time>2019-05-17T13:30:19Z</time>
      </trkpt>
      <trkpt lat="49.02171" lon="2.0464">
        <ele>22</ele>
        <time>2019-05-17T13:30:26Z</time>
      </trkpt>
      <trkpt lat="49.02179" lon="2.04634">
        <ele>22</ele>
        <time>2019-05-17T13:30:33Z</time>
      </trkpt>
      <trkpt lat="49.02188" lon="2.04628">
        <ele>22</ele>
        <time>2019-05-17T13:30:42Z</time>
      </trkpt>
      <trkpt lat="49.02194" lon="2.04615">
        <ele>22</ele>
        <time>2019-05-17T13:30:53Z</time>
      </trkpt>
      <trkpt lat="49.022" lon="2.04605">
        <ele>23</ele>
        <time>2019-05-17T13:31:02Z</time>
      </trkpt>
      <trkpt lat="49.02212" lon="2.04606">
        <ele>23</ele>
        <time>2019-05-17T13:31:11Z</time>
      </trkpt>
      <trkpt lat="49.02227" lon="2.04606">
        <ele>23</ele>
        <time>2019-05-17T13:31:14Z</time>
      </trkpt>
      <trkpt lat="49.02237" lon="2.04605">
        <ele>23</ele>
        <time>2019-05-17T13:31:17Z</time>
      </trkpt>
      <trkpt lat="49.02247" lon="2.04611">
        <ele>23</ele>
        <time>2019-05-17T13:31:23Z</time>
      </trkpt>
      <trkpt lat="49.02256" lon="2.04617">
        <ele>24</ele>
        <time>2019-05-17T13:31:30Z</time>
      </trkpt>
      <trkpt lat="49.02265" lon="2.04628">
        <ele>24</ele>
        <time>2019-05-17T13:31:37Z</time>
      </trkpt>
      <trkpt lat="49.0227" lon="2.0464">
        <ele>24</ele>
        <time>2019-05-17T13:31:45Z</time>
      </trkpt>
      <trkpt lat="49.02272" lon="2.04654">
        <ele>24</ele>
        <time>2019-05-17T13:31:53Z</time>
      </trkpt>
      <trkpt lat="49.0228" lon="2.04662">
        <ele>24</ele>
        <time>2019-05-17T13:32:01Z</time>
      </trkpt>
      <trkpt lat="49.02287" lon="2.04675">
        <ele>24</ele>
        <time>2019-05-17T13:32:09Z</time>
      </trkpt>
      <trkpt lat="49.02295" lon="2.04683">
        <ele>24</ele>
        <time>2019-05-17T13:32:18Z</time>
      </trkpt>
      <trkpt lat="49.02301" lon="2.04694">
        <ele>24</ele>
        <time>2019-05-17T13:32:25Z</time>
      </trkpt>
      <trkpt lat="49.02309" lon="2.04703">
        <ele>24</ele>
        <time>2019-05-17T13:32:33Z</time>
      </trkpt>
      <trkpt lat="49.02318" lon="2.04711">
        <ele>24</ele>
        <time>2019-05-17T13:32:40Z</time>
      </trkpt>
      <trkpt lat="49.02323" lon="2.04696">
        <ele>23</ele>
        <time>2019-05-17T13:33:10Z</time>
      </trkpt>
      <trkpt lat="49.02332" lon="2.0469">
        <ele>23</ele>
        <time>2019-05-17T13:33:16Z</time>
      </trkpt>
      <trkpt lat="49.02341" lon="2.04696">
        <ele>23</ele>
        <time>2019-05-17T13:33:25Z</time>
      </trkpt>
      <trkpt lat="49.02351" lon="2.04703">
        <ele>23</ele>
        <time>2019-05-17T13:33:31Z</time>
      </trkpt>
      <trkpt lat="49.0236" lon="2.04699">
        <ele>23</ele>
        <time>2019-05-17T13:33:38Z</time>
      </trkpt>
      <trkpt lat="49.02371" lon="2.04698">
        <ele>23</ele>
        <time>2019-05-17T13:33:41Z</time>
      </trkpt>
      <trkpt lat="49.0238" lon="2.04699">
        <ele>23</ele>
        <time>2019-05-17T13:33:43Z</time>
      </trkpt>
      <trkpt lat="49.02387" lon="2.04709">
        <ele>23</ele>
        <time>2019-05-17T13:33:49Z</time>
      </trkpt>
      <trkpt lat="49.0239" lon="2.04722">
        <ele>23</ele>
        <time>2019-05-17T13:34:01Z</time>
      </trkpt>
      <trkpt lat="49.02399" lon="2.0473">
        <ele>23</ele>
        <time>2019-05-17T13:34:08Z</time>
      </trkpt>
      <trkpt lat="49.02411" lon="2.04735">
        <ele>24</ele>
        <time>2019-05-17T13:34:21Z</time>
      </trkpt>
      <trkpt lat="49.0242" lon="2.04737">
        <ele>24</ele>
        <time>2019-05-17T13:34:28Z</time>
      </trkpt>
      <trkpt lat="49.02429" lon="2.04743">
        <ele>24</ele>
        <time>2019-05-17T13:34:35Z</time>
      </trkpt>
      <trkpt lat="49.02438" lon="2.04751">
        <ele>25</ele>
        <time>2019-05-17T13:34:46Z</time>
      </trkpt>
      <trkpt lat="49.02447" lon="2.04758">
        <ele>24</ele>
        <time>2019-05-17T13:34:52Z</time>
      </trkpt>
      <trkpt lat="49.02456" lon="2.04764">
        <ele>24</ele>
        <time>2019-05-17T13:35:00Z</time>
      </trkpt>
      <trkpt lat="49.02464" lon="2.04772">
        <ele>24</ele>
        <time>2019-05-17T13:35:12Z</time>
      </trkpt>
      <trkpt lat="49.02472" lon="2.0478">
        <ele>24</ele>
        <time>2019-05-17T13:35:22Z</time>
      </trkpt>
      <trkpt lat="49.02479" lon="2.0479">
        <ele>24</ele>
        <time>2019-05-17T13:35:34Z</time>
      </trkpt>
      <trkpt lat="49.02489" lon="2.04789">
        <ele>24</ele>
        <time>2019-05-17T13:35:46Z</time>
      </trkpt>
      <trkpt lat="49.02499" lon="2.04789">
        <ele>24</ele>
        <time>2019-05-17T13:35:55Z</time>
      </trkpt>
      <trkpt lat="49.02504" lon="2.04801">
        <ele>23</ele>
        <time>2019-05-17T13:36:02Z</time>
      </trkpt>
      <trkpt lat="49.02501" lon="2.04816">
        <ele>23</ele>
        <time>2019-05-17T13:36:06Z</time>
      </trkpt>
      <trkpt lat="49.02509" lon="2.04808">
        <ele>23</ele>
        <time>2019-05-17T13:36:16Z</time>
      </trkpt>
      <trkpt lat="49.02514" lon="2.04796">
        <ele>23</ele>
        <time>2019-05-17T13:36:26Z</time>
      </trkpt>
      <trkpt lat="49.02523" lon="2.04788">
        <ele>23</ele>
        <time>2019-05-17T13:36:38Z</time>
      </trkpt>
      <trkpt lat="49.02529" lon="2.04777">
        <ele>23</ele>
        <time>2019-05-17T13:37:12Z</time>
      </trkpt>
      <trkpt lat="49.02525" lon="2.04791">
        <ele>23</ele>
        <time>2019-05-17T13:43:16Z</time>
      </trkpt>
      <trkpt lat="49.02534" lon="2.04789">
        <ele>23</ele>
        <time>2019-05-17T13:45:43Z</time>
      </trkpt>
      <trkpt lat="49.02543" lon="2.04789">
        <ele>22</ele>
        <time>2019-05-17T13:47:31Z</time>
      </trkpt>
      <trkpt lat="49.02551" lon="2.04782">
        <ele>22</ele>
        <time>2019-05-17T13:47:46Z</time>
      </trkpt>
      <trkpt lat="49.02547" lon="2.04794">
        <ele>22</ele>
        <time>2019-05-17T13:47:59Z</time>
      </trkpt>
      <trkpt lat="49.02546" lon="2.04808">
        <ele>23</ele>
        <time>2019-05-17T13:48:13Z</time>
      </trkpt>
      <trkpt lat="49.0254" lon="2.04818">
        <ele>23</ele>
        <time>2019-05-17T13:48:22Z</time>
      </trkpt>
      <trkpt lat="49.02539" lon="2.04834">
        <ele>23</ele>
        <time>2019-05-17T13:48:31Z</time>
      </trkpt>
      <trkpt lat="49.0254" lon="2.04848">
        <ele>23</ele>
        <time>2019-05-17T13:48:39Z</time>
      </trkpt>
      <trkpt lat="49.0254" lon="2.04862">
        <ele>23</ele>
        <time>2019-05-17T13:48:49Z</time>
      </trkpt>
      <trkpt lat="49.02536" lon="2.04877">
        <ele>23</ele>
        <time>2019-05-17T13:48:58Z</time>
      </trkpt>
      <trkpt lat="49.0254" lon="2.04892">
        <ele>23</ele>
        <time>2019-05-17T13:49:05Z</time>
      </trkpt>
      <trkpt lat="49.02547" lon="2.04903">
        <ele>23</ele>
        <time>2019-05-17T13:49:15Z</time>
      </trkpt>
      <trkpt lat="49.02555" lon="2.04913">
        <ele>23</ele>
        <time>2019-05-17T13:49:23Z</time>
      </trkpt>
      <trkpt lat="49.0256" lon="2.04925">
        <ele>23</ele>
        <time>2019-05-17T13:49:33Z</time>
      </trkpt>
      <trkpt lat="49.02567" lon="2.04936">
        <ele>24</ele>
        <time>2019-05-17T13:49:45Z</time>
      </trkpt>
      <trkpt lat="49.02576" lon="2.04943">
        <ele>24</ele>
        <time>2019-05-17T13:49:55Z</time>
      </trkpt>
      <trkpt lat="49.02582" lon="2.04954">
        <ele>24</ele>
        <time>2019-05-17T13:50:02Z</time>
      </trkpt>
      <trkpt lat="49.02584" lon="2.04969">
        <ele>24</ele>
        <time>2019-05-17T13:50:07Z</time>
      </trkpt>
      <trkpt lat="49.02589" lon="2.04982">
        <ele>24</ele>
        <time>2019-05-17T13:50:15Z</time>
      </trkpt>
      <trkpt lat="49.02593" lon="2.04994">
        <ele>25</ele>
        <time>2019-05-17T13:50:24Z</time>
      </trkpt>
      <trkpt lat="49.026" lon="2.05004">
        <ele>25</ele>
        <time>2019-05-17T13:50:30Z</time>
      </trkpt>
      <trkpt lat="49.02607" lon="2.05013">
        <ele>25</ele>
        <time>2019-05-17T13:50:36Z</time>
      </trkpt>
      <trkpt lat="49.02616" lon="2.05018">
        <ele>25</ele>
        <time>2019-05-17T13:50:44Z</time>
      </trkpt>
      <trkpt lat="49.02626" lon="2.0502">
        <ele>25</ele>
        <time>2019-05-17T13:50:53Z</time>
      </trkpt>
      <trkpt lat="49.02635" lon="2.05029">
        <ele>25</ele>
        <time>2019-05-17T13:50:59Z</time>
      </trkpt>
      <trkpt lat="49.02635" lon="2.05044">
        <ele>26</ele>
        <time>2019-05-17T13:51:05Z</time>
      </trkpt>
      <trkpt lat="49.02643" lon="2.05035">
        <ele>26</ele>
        <time>2019-05-17T13:51:16Z</time>
      </trkpt>
      <trkpt lat="49.02651" lon="2.05026">
        <ele>25</ele>
        <time>2019-05-17T13:51:23Z</time>
      </trkpt>
      <trkpt lat="49.02659" lon="2.05016">
        <ele>25</ele>
        <time>2019-05-17T13:51:33Z</time>
      </trkpt>
      <trkpt lat="49.02668" lon="2.05012">
        <ele>25</ele>
        <time>2019-05-17T13:51:45Z</time>
      </trkpt>
      <trkpt lat="49.02679" lon="2.05018">
        <ele>25</ele>
        <time>2019-05-17T13:52:28Z</time>
      </trkpt>
      <trkpt lat="49.02681" lon="2.05002">
        <ele>25</ele>
        <time>2019-05-17T13:52:32Z</time>
      </trkpt>
      <trkpt lat="49.0268" lon="2.0498">
        <ele>24</ele>
        <time>2019-05-17T13:52:36Z</time>
      </trkpt>
      <trkpt lat="49.02685" lon="2.04996">
        <ele>24</ele>
        <time>2019-05-17T13:53:09Z</time>
      </trkpt>
      <trkpt lat="49.02672" lon="2.04994">
        <ele>24</ele>
        <time>2019-05-17T13:53:29Z</time>
      </trkpt>
      <trkpt lat="49.0268" lon="2.04991">
        <ele>24</ele>
        <time>2019-05-17T13:53:39Z</time>
      </trkpt>
      <trkpt lat="49.02683" lon="2.04977">
        <ele>24</ele>
        <time>2019-05-17T13:53:49Z</time>
      </trkpt>
      <trkpt lat="49.02685" lon="2.04963">
        <ele>23</ele>
        <time>2019-05-17T13:53:55Z</time>
      </trkpt>
      <trkpt lat="49.0269" lon="2.04949">
        <ele>23</ele>
        <time>2019-05-17T13:54:02Z</time>
      </trkpt>
      <trkpt lat="49.02691" lon="2.04935">
        <ele>23</ele>
        <time>2019-05-17T13:54:12Z</time>
      </trkpt>
      <trkpt lat="49.0269" lon="2.0492">
        <ele>23</ele>
        <time>2019-05-17T13:54:17Z</time>
      </trkpt>
      <trkpt lat="49.02688" lon="2.04904">
        <ele>23</ele>
        <time>2019-05-17T13:54:25Z</time>
      </trkpt>
      <trkpt lat="49.02688" lon="2.0489">
        <ele>22</ele>
        <time>2019-05-17T13:54:31Z</time>
      </trkpt>
      <trkpt lat="49.02686" lon="2.04876">
        <ele>22</ele>
        <time>2019-05-17T13:54:40Z</time>
      </trkpt>
      <trkpt lat="49.02685" lon="2.04861">
        <ele>22</ele>
        <time>2019-05-17T13:54:48Z</time>
      </trkpt>
      <trkpt lat="49.02684" lon="2.04844">
        <ele>22</ele>
        <time>2019-05-17T13:54:53Z</time>
      </trkpt>
      <trkpt lat="49.02682" lon="2.0483">
        <ele>22</ele>
        <time>2019-05-17T13:55:01Z</time>
      </trkpt>
      <trkpt lat="49.0268" lon="2.04816">
        <ele>22</ele>
        <time>2019-05-17T13:55:08Z</time>
      </trkpt>
      <trkpt lat="49.02677" lon="2.04802">
        <ele>22</ele>
        <time>2019-05-17T13:55:15Z</time>
      </trkpt>
      <trkpt lat="49.02678" lon="2.04788">
        <ele>22</ele>
        <time>2019-05-17T13:55:20Z</time>
      </trkpt>
      <trkpt lat="49.02678" lon="2.04771">
        <ele>23</ele>
        <time>2019-05-17T13:55:26Z</time>
      </trkpt>
      <trkpt lat="49.02678" lon="2.04757">
        <ele>23</ele>
        <time>2019-05-17T13:55:34Z</time>
      </trkpt>
      <trkpt lat="49.02679" lon="2.04743">
        <ele>23</ele>
        <time>2019-05-17T13:55:43Z</time>
      </trkpt>
      <trkpt lat="49.02681" lon="2.04727">
        <ele>22</ele>
        <time>2019-05-17T13:55:49Z</time>
      </trkpt>
      <trkpt lat="49.02683" lon="2.04712">
        <ele>22</ele>
        <time>2019-05-17T13:55:54Z</time>
      </trkpt>
      <trkpt lat="49.02686" lon="2.04698">
        <ele>22</ele>
        <time>2019-05-17T13:55:59Z</time>
      </trkpt>
      <trkpt lat="49.02689" lon="2.04685">
        <ele>22</ele>
        <time>2019-05-17T13:56:05Z</time>
      </trkpt>
      <trkpt lat="49.02686" lon="2.04672">
        <ele>22</ele>
        <time>2019-05-17T13:56:14Z</time>
      </trkpt>
      <trkpt lat="49.0268" lon="2.04662">
        <ele>22</ele>
        <time>2019-05-17T13:56:21Z</time>
      </trkpt>
      <trkpt lat="49.02674" lon="2.04649">
        <ele>22</ele>
        <time>2019-05-17T13:56:27Z</time>
      </trkpt>
      <trkpt lat="49.0267" lon="2.04635">
        <ele>22</ele>
        <time>2019-05-17T13:56:33Z</time>
      </trkpt>
      <trkpt lat="49.02664" lon="2.04623">
        <ele>21</ele>
        <time>2019-05-17T13:56:41Z</time>
      </trkpt>
      <trkpt lat="49.02659" lon="2.0461">
        <ele>21</ele>
        <time>2019-05-17T13:56:49Z</time>
      </trkpt>
      <trkpt lat="49.02654" lon="2.04596">
        <ele>21</ele>
        <time>2019-05-17T13:56:58Z</time>
      </trkpt>
      <trkpt lat="49.0265" lon="2.04582">
        <ele>22</ele>
        <time>2019-05-17T13:57:05Z</time>
      </trkpt>
      <trkpt lat="49.02646" lon="2.04567">
        <ele>21</ele>
        <time>2019-05-17T13:57:11Z</time>
      </trkpt>
      <trkpt lat="49.02642" lon="2.04552">
        <ele>21</ele>
        <time>2019-05-17T13:57:18Z</time>
      </trkpt>
      <trkpt lat="49.02641" lon="2.04537">
        <ele>21</ele>
        <time>2019-05-17T13:57:23Z</time>
      </trkpt>
      <trkpt lat="49.02637" lon="2.04521">
        <ele>21</ele>
        <time>2019-05-17T13:57:31Z</time>
      </trkpt>
      <trkpt lat="49.02634" lon="2.04508">
        <ele>21</ele>
        <time>2019-05-17T13:57:37Z</time>
      </trkpt>
      <trkpt lat="49.02631" lon="2.04493">
        <ele>22</ele>
        <time>2019-05-17T13:57:46Z</time>
      </trkpt>
      <trkpt lat="49.02624" lon="2.04481">
        <ele>22</ele>
        <time>2019-05-17T13:57:55Z</time>
      </trkpt>
      <trkpt lat="49.02616" lon="2.04472">
        <ele>22</ele>
        <time>2019-05-17T13:58:04Z</time>
      </trkpt>
      <trkpt lat="49.02613" lon="2.04459">
        <ele>22</ele>
        <time>2019-05-17T13:58:13Z</time>
      </trkpt>
      <trkpt lat="49.02615" lon="2.04443">
        <ele>22</ele>
        <time>2019-05-17T13:58:19Z</time>
      </trkpt>
      <trkpt lat="49.02618" lon="2.0443">
        <ele>22</ele>
        <time>2019-05-17T13:58:25Z</time>
      </trkpt>
      <trkpt lat="49.02623" lon="2.04416">
        <ele>23</ele>
        <time>2019-05-17T13:58:31Z</time>
      </trkpt>
      <trkpt lat="49.02625" lon="2.04403">
        <ele>23</ele>
        <time>2019-05-17T13:58:39Z</time>
      </trkpt>
      <trkpt lat="49.02621" lon="2.0439">
        <ele>23</ele>
        <time>2019-05-17T13:58:46Z</time>
      </trkpt>
      <trkpt lat="49.02615" lon="2.04377">
        <ele>23</ele>
        <time>2019-05-17T13:58:55Z</time>
      </trkpt>
      <trkpt lat="49.02612" lon="2.04364">
        <ele>23</ele>
        <time>2019-05-17T13:59:19Z</time>
      </trkpt>
      <trkpt lat="49.02605" lon="2.04355">
        <ele>23</ele>
        <time>2019-05-17T13:59:26Z</time>
      </trkpt>
      <trkpt lat="49.02599" lon="2.04344">
        <ele>23</ele>
        <time>2019-05-17T13:59:35Z</time>
      </trkpt>
      <trkpt lat="49.02596" lon="2.0433">
        <ele>23</ele>
        <time>2019-05-17T13:59:48Z</time>
      </trkpt>
      <trkpt lat="49.02589" lon="2.04322">
        <ele>23</ele>
        <time>2019-05-17T13:59:55Z</time>
      </trkpt>
      <trkpt lat="49.02579" lon="2.04316">
        <ele>24</ele>
        <time>2019-05-17T14:00:01Z</time>
      </trkpt>
      <trkpt lat="49.02569" lon="2.04315">
        <ele>24</ele>
        <time>2019-05-17T14:00:08Z</time>
      </trkpt>
      <trkpt lat="49.0256" lon="2.04312">
        <ele>24</ele>
        <time>2019-05-17T14:00:16Z</time>
      </trkpt>
      <trkpt lat="49.02551" lon="2.04311">
        <ele>24</ele>
        <time>2019-05-17T14:00:23Z</time>
      </trkpt>
      <trkpt lat="49.02541" lon="2.04315">
        <ele>24</ele>
        <time>2019-05-17T14:00:36Z</time>
      </trkpt>
      <trkpt lat="49.02531" lon="2.04321">
        <ele>24</ele>
        <time>2019-05-17T14:00:44Z</time>
      </trkpt>
      <trkpt lat="49.02522" lon="2.04324">
        <ele>24</ele>
        <time>2019-05-17T14:00:54Z</time>
      </trkpt>
      <trkpt lat="49.02512" lon="2.04323">
        <ele>24</ele>
        <time>2019-05-17T14:01:03Z</time>
      </trkpt>
      <trkpt lat="49.02502" lon="2.04326">
        <ele>24</ele>
        <time>2019-05-17T14:01:12Z</time>
      </trkpt>
      <trkpt lat="49.02492" lon="2.04329">
        <ele>24</ele>
        <time>2019-05-17T14:01:17Z</time>
      </trkpt>
      <trkpt lat="49.02485" lon="2.04339">
        <ele>22</ele>
        <time>2019-05-17T14:01:24Z</time>
      </trkpt>
      <trkpt lat="49.02477" lon="2.04348">
        <ele>22</ele>
        <time>2019-05-17T14:01:31Z</time>
      </trkpt>
      <trkpt lat="49.02467" lon="2.04354">
        <ele>21</ele>
        <time>2019-05-17T14:01:43Z</time>
      </trkpt>
      <trkpt lat="49.02458" lon="2.04359">
        <ele>21</ele>
        <time>2019-05-17T14:01:52Z</time>
      </trkpt>
      <trkpt lat="49.02449" lon="2.04367">
        <ele>21</ele>
        <time>2019-05-17T14:01:59Z</time>
      </trkpt>
      <trkpt lat="49.02439" lon="2.04367">
        <ele>21</ele>
        <time>2019-05-17T14:02:15Z</time>
      </trkpt>
      <trkpt lat="49.0243" lon="2.04371">
        <ele>21</ele>
        <time>2019-05-17T14:02:29Z</time>
      </trkpt>
      <trkpt lat="49.02421" lon="2.04378">
        <ele>21</ele>
        <time>2019-05-17T14:02:38Z</time>
      </trkpt>
      <trkpt lat="49.02413" lon="2.04388">
        <ele>23</ele>
        <time>2019-05-17T14:02:47Z</time>
      </trkpt>
      <trkpt lat="49.02407" lon="2.04398">
        <ele>23</ele>
        <time>2019-05-17T14:02:53Z</time>
      </trkpt>
      <trkpt lat="49.02399" lon="2.04408">
        <ele>23</ele>
        <time>2019-05-17T14:03:01Z</time>
      </trkpt>
      <trkpt lat="49.02397" lon="2.04422">
        <ele>22</ele>
        <time>2019-05-17T14:03:21Z</time>
      </trkpt>
      <trkpt lat="49.02391" lon="2.04433">
        <ele>22</ele>
        <time>2019-05-17T14:03:29Z</time>
      </trkpt>
      <trkpt lat="49.02385" lon="2.04445">
        <ele>22</ele>
        <time>2019-05-17T14:03:36Z</time>
      </trkpt>
      <trkpt lat="49.02377" lon="2.04454">
        <ele>22</ele>
        <time>2019-05-17T14:03:43Z</time>
      </trkpt>
      <trkpt lat="49.0237" lon="2.04462">
        <ele>23</ele>
        <time>2019-05-17T14:03:49Z</time>
      </trkpt>
      <trkpt lat="49.02364" lon="2.04474">
        <ele>23</ele>
        <time>2019-05-17T14:03:57Z</time>
      </trkpt>
      <trkpt lat="49.0236" lon="2.04487">
        <ele>23</ele>
        <time>2019-05-17T14:04:04Z</time>
      </trkpt>
      <trkpt lat="49.02355" lon="2.04499">
        <ele>23</ele>
        <time>2019-05-17T14:04:09Z</time>
      </trkpt>
      <trkpt lat="49.02348" lon="2.04511">
        <ele>22</ele>
        <time>2019-05-17T14:04:19Z</time>
      </trkpt>
      <trkpt lat="49.02341" lon="2.04521">
        <ele>22</ele>
        <time>2019-05-17T14:04:23Z</time>
      </trkpt>
      <trkpt lat="49.02333" lon="2.0453">
        <ele>22</ele>
        <time>2019-05-17T14:04:30Z</time>
      </trkpt>
      <trkpt lat="49.02325" lon="2.04538">
        <ele>24</ele>
        <time>2019-05-17T14:04:37Z</time>
      </trkpt>
      <trkpt lat="49.02316" lon="2.04542">
        <ele>24</ele>
        <time>2019-05-17T14:04:45Z</time>
      </trkpt>
      <trkpt lat="49.02307" lon="2.04539">
        <ele>24</ele>
        <time>2019-05-17T14:04:53Z</time>
      </trkpt>
      <trkpt lat="49.02298" lon="2.04537">
        <ele>24</ele>
        <time>2019-05-17T14:04:57Z</time>
      </trkpt>
      <trkpt lat="49.02287" lon="2.04537">
        <ele>24</ele>
        <time>2019-05-17T14:05:04Z</time>
      </trkpt>
      <trkpt lat="49.02278" lon="2.04544">
        <ele>24</ele>
        <time>2019-05-17T14:05:09Z</time>
      </trkpt>
      <trkpt lat="49.02269" lon="2.04552">
        <ele>24</ele>
        <time>2019-05-17T14:05:18Z</time>
      </trkpt>
      <trkpt lat="49.02259" lon="2.04551">
        <ele>24</ele>
        <time>2019-05-17T14:05:22Z</time>
      </trkpt>
      <trkpt lat="49.0225" lon="2.04552">
        <ele>23</ele>
        <time>2019-05-17T14:05:31Z</time>
      </trkpt>
      <trkpt lat="49.02241" lon="2.04556">
        <ele>23</ele>
        <time>2019-05-17T14:05:40Z</time>
      </trkpt>
      <trkpt lat="49.02236" lon="2.04569">
        <ele>23</ele>
        <time>2019-05-17T14:05:51Z</time>
      </trkpt>
      <trkpt lat="49.0223" lon="2.0458">
        <ele>23</ele>
        <time>2019-05-17T14:06:01Z</time>
      </trkpt>
      <trkpt lat="49.02222" lon="2.04591">
        <ele>23</ele>
        <time>2019-05-17T14:06:07Z</time>
      </trkpt>
      <trkpt lat="49.02214" lon="2.04599">
        <ele>23</ele>
        <time>2019-05-17T14:06:12Z</time>
      </trkpt>
      <trkpt lat="49.02205" lon="2.04606">
        <ele>23</ele>
        <time>2019-05-17T14:06:19Z</time>
      </trkpt>
      <trkpt lat="49.02197" lon="2.04617">
        <ele>22</ele>
        <time>2019-05-17T14:06:24Z</time>
      </trkpt>
      <trkpt lat="49.0219" lon="2.04625">
        <ele>22</ele>
        <time>2019-05-17T14:06:29Z</time>
      </trkpt>
      <trkpt lat="49.02181" lon="2.04636">
        <ele>22</ele>
        <time>2019-05-17T14:06:35Z</time>
      </trkpt>
      <trkpt lat="49.02173" lon="2.04642">
        <ele>22</ele>
        <time>2019-05-17T14:06:40Z</time>
      </trkpt>
      <trkpt lat="49.02166" lon="2.0465">
        <ele>21</ele>
        <time>2019-05-17T14:06:47Z</time>
      </trkpt>
      <trkpt lat="49.02158" lon="2.04661">
        <ele>21</ele>
        <time>2019-05-17T14:06:54Z</time>
      </trkpt>
      <trkpt lat="49.02151" lon="2.04671">
        <ele>21</ele>
        <time>2019-05-17T14:07:02Z</time>
      </trkpt>
      <trkpt lat="49.02142" lon="2.04676">
        <ele>21</ele>
        <time>2019-05-17T14:07:09Z</time>
      </trkpt>
      <trkpt lat="49.02134" lon="2.04685">
        <ele>21</ele>
        <time>2019-05-17T14:07:16Z</time>
      </trkpt>
      <trkpt lat="49.02125" lon="2.0469">
        <ele>21</ele>
        <time>2019-05-17T14:07:23Z</time>
      </trkpt>
      <trkpt lat="49.02115" lon="2.04695">
        <ele>21</ele>
        <time>2019-05-17T14:07:30Z</time>
      </trkpt>
      <trkpt lat="49.02107" lon="2.04701">
        <ele>21</ele>
        <time>2019-05-17T14:07:38Z</time>
      </trkpt>
      <trkpt lat="49.02098" lon="2.04708">
        <ele>22</ele>
        <time>2019-05-17T14:07:45Z</time>
      </trkpt>
      <trkpt lat="49.0209" lon="2.04716">
        <ele>22</ele>
        <time>2019-05-17T14:07:52Z</time>
      </trkpt>
      <trkpt lat="49.0208" lon="2.04721">
        <ele>22</ele>
        <time>2019-05-17T14:07:59Z</time>
      </trkpt>
      <trkpt lat="49.0207" lon="2.04721">
        <ele>22</ele>
        <time>2019-05-17T14:08:08Z</time>
      </trkpt>
      <trkpt lat="49.0206" lon="2.04722">
        <ele>22</ele>
        <time>2019-05-17T14:08:14Z</time>
      </trkpt>
      <trkpt lat="49.02052" lon="2.04731">
        <ele>22</ele>
        <time>2019-05-17T14:08:24Z</time>
      </trkpt>
      <trkpt lat="49.02046" lon="2.04742">
        <ele>22</ele>
        <time>2019-05-17T14:08:31Z</time>
      </trkpt>
      <trkpt lat="49.02038" lon="2.0475">
        <ele>24</ele>
        <time>2019-05-17T14:08:41Z</time>
      </trkpt>
      <trkpt lat="49.02031" lon="2.04761">
        <ele>24</ele>
        <time>2019-05-17T14:08:47Z</time>
      </trkpt>
      <trkpt lat="49.02023" lon="2.04772">
        <ele>24</ele>
        <time>2019-05-17T14:08:56Z</time>
      </trkpt>
      <trkpt lat="49.02014" lon="2.04777">
        <ele>24</ele>
        <time>2019-05-17T14:09:05Z</time>
      </trkpt>
      <trkpt lat="49.02005" lon="2.04782">
        <ele>24</ele>
        <time>2019-05-17T14:09:10Z</time>
      </trkpt>
      <trkpt lat="49.01998" lon="2.04789">
        <ele>25</ele>
        <time>2019-05-17T14:09:16Z</time>
      </trkpt>
      <trkpt lat="49.01988" lon="2.048">
        <ele>24</ele>
        <time>2019-05-17T14:09:21Z</time>
      </trkpt>
      <trkpt lat="49.01981" lon="2.04809">
        <ele>24</ele>
        <time>2019-05-17T14:09:27Z</time>
      </trkpt>
      <trkpt lat="49.01975" lon="2.04821">
        <ele>24</ele>
        <time>2019-05-17T14:09:34Z</time>
      </trkpt>
      <trkpt lat="49.0197" lon="2.04832">
        <ele>24</ele>
        <time>2019-05-17T14:09:40Z</time>
      </trkpt>
      <trkpt lat="49.01963" lon="2.04841">
        <ele>23</ele>
        <time>2019-05-17T14:09:45Z</time>
      </trkpt>
      <trkpt lat="49.01954" lon="2.04848">
        <ele>22</ele>
        <time>2019-05-17T14:09:53Z</time>
      </trkpt>
      <trkpt lat="49.01945" lon="2.04854">
        <ele>22</ele>
        <time>2019-05-17T14:10:00Z</time>
      </trkpt>
      <trkpt lat="49.01937" lon="2.04861">
        <ele>22</ele>
        <time>2019-05-17T14:10:06Z</time>
      </trkpt>
      <trkpt lat="49.01928" lon="2.0487">
        <ele>22</ele>
        <time>2019-05-17T14:10:14Z</time>
      </trkpt>
      <trkpt lat="49.0192" lon="2.04878">
        <ele>22</ele>
        <time>2019-05-17T14:10:23Z</time>
      </trkpt>
      <trkpt lat="49.01913" lon="2.04888">
        <ele>22</ele>
        <time>2019-05-17T14:10:33Z</time>
      </trkpt>
      <trkpt lat="49.01906" lon="2.04898">
        <ele>22</ele>
        <time>2019-05-17T14:10:38Z</time>
      </trkpt>
      <trkpt lat="49.01898" lon="2.04906">
        <ele>22</ele>
        <time>2019-05-17T14:10:42Z</time>
      </trkpt>
      <trkpt lat="49.01892" lon="2.04917">
        <ele>21</ele>
        <time>2019-05-17T14:10:48Z</time>
      </trkpt>
      <trkpt lat="49.01883" lon="2.04924">
        <ele>21</ele>
        <time>2019-05-17T14:10:59Z</time>
      </trkpt>
      <trkpt lat="49.01878" lon="2.04935">
        <ele>21</ele>
        <time>2019-05-17T14:11:06Z</time>
      </trkpt>
      <trkpt lat="49.01871" lon="2.04947">
        <ele>21</ele>
        <time>2019-05-17T14:11:19Z</time>
      </trkpt>
      <trkpt lat="49.01866" lon="2.04959">
        <ele>21</ele>
        <time>2019-05-17T14:11:42Z</time>
      </trkpt>
      <trkpt lat="49.01856" lon="2.0497">
        <ele>21</ele>
        <time>2019-05-17T14:11:53Z</time>
      </trkpt>
      <trkpt lat="49.01843" lon="2.04987">
        <ele>20</ele>
        <time>2019-05-17T14:11:59Z</time>
      </trkpt>
      <trkpt lat="49.01836" lon="2.04996">
        <ele>20</ele>
        <time>2019-05-17T14:12:01Z</time>
      </trkpt>
      <trkpt lat="49.01829" lon="2.05006">
        <ele>21</ele>
        <time>2019-05-17T14:12:04Z</time>
      </trkpt>
      <trkpt lat="49.01821" lon="2.05018">
        <ele>22</ele>
        <time>2019-05-17T14:12:08Z</time>
      </trkpt>
      <trkpt lat="49.01814" lon="2.05032">
        <ele>22</ele>
        <time>2019-05-17T14:12:13Z</time>
      </trkpt>
      <trkpt lat="49.01808" lon="2.05047">
        <ele>22</ele>
        <time>2019-05-17T14:12:16Z</time>
      </trkpt>
      <trkpt lat="49.01802" lon="2.0506">
        <ele>23</ele>
        <time>2019-05-17T14:12:21Z</time>
      </trkpt>
      <trkpt lat="49.01795" lon="2.0507">
        <ele>23</ele>
        <time>2019-05-17T14:12:28Z</time>
      </trkpt>
      <trkpt lat="49.0179" lon="2.05084">
        <ele>23</ele>
        <time>2019-05-17T14:12:34Z</time>
      </trkpt>
      <trkpt lat="49.01783" lon="2.05095">
        <ele>23</ele>
        <time>2019-05-17T14:12:44Z</time>
      </trkpt>
      <trkpt lat="49.01776" lon="2.05105">
        <ele>23</ele>
        <time>2019-05-17T14:12:51Z</time>
      </trkpt>
      <trkpt lat="49.01769" lon="2.05115">
        <ele>23</ele>
        <time>2019-05-17T14:13:05Z</time>
      </trkpt>
      <trkpt lat="49.0176" lon="2.05125">
        <ele>23</ele>
        <time>2019-05-17T14:13:09Z</time>
      </trkpt>
      <trkpt lat="49.01754" lon="2.05137">
        <ele>23</ele>
        <time>2019-05-17T14:13:15Z</time>
      </trkpt>
      <trkpt lat="49.01748" lon="2.05147">
        <ele>23</ele>
        <time>2019-05-17T14:13:23Z</time>
      </trkpt>
      <trkpt lat="49.01742" lon="2.05161">
        <ele>23</ele>
        <time>2019-05-17T14:13:28Z</time>
      </trkpt>
      <trkpt lat="49.01736" lon="2.05172">
        <ele>22</ele>
        <time>2019-05-17T14:13:34Z</time>
      </trkpt>
      <trkpt lat="49.01728" lon="2.05184">
        <ele>22</ele>
        <time>2019-05-17T14:13:42Z</time>
      </trkpt>
      <trkpt lat="49.01721" lon="2.05194">
        <ele>22</ele>
        <time>2019-05-17T14:13:48Z</time>
      </trkpt>
      <trkpt lat="49.01713" lon="2.05205">
        <ele>22</ele>
        <time>2019-05-17T14:13:56Z</time>
      </trkpt>
      <trkpt lat="49.01706" lon="2.05217">
        <ele>22</ele>
        <time>2019-05-17T14:14:01Z</time>
      </trkpt>
      <trkpt lat="49.01701" lon="2.05229">
        <ele>22</ele>
        <time>2019-05-17T14:14:11Z</time>
      </trkpt>
      <trkpt lat="49.01694" lon="2.05239">
        <ele>22</ele>
        <time>2019-05-17T14:14:21Z</time>
      </trkpt>
      <trkpt lat="49.01686" lon="2.05251">
        <ele>21</ele>
        <time>2019-05-17T14:14:30Z</time>
      </trkpt>
      <trkpt lat="49.01679" lon="2.05261">
        <ele>21</ele>
        <time>2019-05-17T14:14:37Z</time>
      </trkpt>
      <trkpt lat="49.01671" lon="2.05273">
        <ele>21</ele>
        <time>2019-05-17T14:14:44Z</time>
      </trkpt>
      <trkpt lat="49.01664" lon="2.05283">
        <ele>21</ele>
        <time>2019-05-17T14:14:50Z</time>
      </trkpt>
      <trkpt lat="49.01659" lon="2.05295">
        <ele>21</ele>
        <time>2019-05-17T14:14:56Z</time>
      </trkpt>
      <trkpt lat="49.01651" lon="2.05305">
        <ele>21</ele>
        <time>2019-05-17T14:15:04Z</time>
      </trkpt>
      <trkpt lat="49.01643" lon="2.05314">
        <ele>21</ele>
        <time>2019-05-17T14:15:13Z</time>
      </trkpt>
      <trkpt lat="49.01635" lon="2.05323">
        <ele>21</ele>
        <time>2019-05-17T14:15:20Z</time>
      </trkpt>
      <trkpt lat="49.01628" lon="2.05331">
        <ele>21</ele>
        <time>2019-05-17T14:15:27Z</time>
      </trkpt>
      <trkpt lat="49.01622" lon="2.05346">
        <ele>21</ele>
        <time>2019-05-17T14:15:38Z</time>
      </trkpt>
      <trkpt lat="49.01614" lon="2.05356">
        <ele>21</ele>
        <time>2019-05-17T14:15:43Z</time>
      </trkpt>
      <trkpt lat="49.01609" lon="2.0537">
        <ele>21</ele>
        <time>2019-05-17T14:15:47Z</time>
      </trkpt>
      <trkpt lat="49.01605" lon="2.05383">
        <ele>21</ele>
        <time>2019-05-17T14:15:56Z</time>
      </trkpt>
      <trkpt lat="49.01597" lon="2.05394">
        <ele>21</ele>
        <time>2019-05-17T14:16:03Z</time>
      </trkpt>
      <trkpt lat="49.01588" lon="2.05403">
        <ele>21</ele>
        <time>2019-05-17T14:16:10Z</time>
      </trkpt>
      <trkpt lat="49.01581" lon="2.05413">
        <ele>21</ele>
        <time>2019-05-17T14:16:17Z</time>
      </trkpt>
      <trkpt lat="49.01575" lon="2.05424">
        <ele>21</ele>
        <time>2019-05-17T14:16:24Z</time>
      </trkpt>
      <trkpt lat="49.0157" lon="2.05436">
        <ele>21</ele>
        <time>2019-05-17T14:16:29Z</time>
      </trkpt>
      <trkpt lat="49.01564" lon="2.05448">
        <ele>21</ele>
        <time>2019-05-17T14:16:34Z</time>
      </trkpt>
      <trkpt lat="49.01557" lon="2.05459">
        <ele>21</ele>
        <time>2019-05-17T14:16:40Z</time>
      </trkpt>
      <trkpt lat="49.01551" lon="2.0547">
        <ele>21</ele>
        <time>2019-05-17T14:16:45Z</time>
      </trkpt>
      <trkpt lat="49.01544" lon="2.05483">
        <ele>21</ele>
        <time>2019-05-17T14:16:53Z</time>
      </trkpt>
      <trkpt lat="49.01539" lon="2.05496">
        <ele>22</ele>
        <time>2019-05-17T14:16:58Z</time>
      </trkpt>
      <trkpt lat="49.01533" lon="2.05507">
        <ele>22</ele>
        <time>2019-05-17T14:17:06Z</time>
      </trkpt>
      <trkpt lat="49.01526" lon="2.05519">
        <ele>22</ele>
        <time>2019-05-17T14:17:11Z</time>
      </trkpt>
      <trkpt lat="49.0152" lon="2.05531">
        <ele>22</ele>
        <time>2019-05-17T14:17:21Z</time>
      </trkpt>
      <trkpt lat="49.01513" lon="2.05541">
        <ele>22</ele>
        <time>2019-05-17T14:17:30Z</time>
      </trkpt>
      <trkpt lat="49.01507" lon="2.05554">
        <ele>21</ele>
        <time>2019-05-17T14:17:38Z</time>
      </trkpt>
      <trkpt lat="49.01502" lon="2.05568">
        <ele>21</ele>
        <time>2019-05-17T14:17:44Z</time>
      </trkpt>
      <trkpt lat="49.01496" lon="2.05579">
        <ele>21</ele>
        <time>2019-05-17T14:17:51Z</time>
      </trkpt>
      <trkpt lat="49.01491" lon="2.05591">
        <ele>21</ele>
        <time>2019-05-17T14:17:56Z</time>
      </trkpt>
      <trkpt lat="49.01485" lon="2.05602">
        <ele>20</ele>
        <time>2019-05-17T14:18:04Z</time>
      </trkpt>
      <trkpt lat="49.01481" lon="2.05616">
        <ele>20</ele>
        <time>2019-05-17T14:18:10Z</time>
      </trkpt>
      <trkpt lat="49.01474" lon="2.05627">
        <ele>20</ele>
        <time>2019-05-17T14:18:17Z</time>
      </trkpt>
      <trkpt lat="49.01469" lon="2.05639">
        <ele>20</ele>
        <time>2019-05-17T14:18:26Z</time>
      </trkpt>
      <trkpt lat="49.01462" lon="2.05649">
        <ele>20</ele>
        <time>2019-05-17T14:18:32Z</time>
      </trkpt>
      <trkpt lat="49.01454" lon="2.0566">
        <ele>20</ele>
        <time>2019-05-17T14:18:38Z</time>
      </trkpt>
      <trkpt lat="49.01448" lon="2.05671">
        <ele>20</ele>
        <time>2019-05-17T14:18:43Z</time>
      </trkpt>
      <trkpt lat="49.01441" lon="2.05683">
        <ele>20</ele>
        <time>2019-05-17T14:18:50Z</time>
      </trkpt>
      <trkpt lat="49.01434" lon="2.05691">
        <ele>20</ele>
        <time>2019-05-17T14:18:56Z</time>
      </trkpt>
      <trkpt lat="49.01426" lon="2.05701">
        <ele>20</ele>
        <time>2019-05-17T14:19:03Z</time>
      </trkpt>
      <trkpt lat="49.01419" lon="2.05708">
        <ele>20</ele>
        <time>2019-05-17T14:19:09Z</time>
      </trkpt>
      <trkpt lat="49.01411" lon="2.05718">
        <ele>21</ele>
        <time>2019-05-17T14:19:17Z</time>
      </trkpt>
      <trkpt lat="49.01407" lon="2.05732">
        <ele>21</ele>
        <time>2019-05-17T14:19:27Z</time>
      </trkpt>
      <trkpt lat="49.0141" lon="2.05745">
        <ele>21</ele>
        <time>2019-05-17T14:19:53Z</time>
      </trkpt>
      <trkpt lat="49.01402" lon="2.05736">
        <ele>21</ele>
        <time>2019-05-17T14:20:54Z</time>
      </trkpt>
      <trkpt lat="49.01396" lon="2.05725">
        <ele>21</ele>
        <time>2019-05-17T14:21:07Z</time>
      </trkpt>
      <trkpt lat="49.01388" lon="2.05715">
        <ele>21</ele>
        <time>2019-05-17T14:21:18Z</time>
      </trkpt>
      <trkpt lat="49.01382" lon="2.05704">
        <ele>22</ele>
        <time>2019-05-17T14:21:28Z</time>
      </trkpt>
      <trkpt lat="49.01376" lon="2.05693">
        <ele>22</ele>
        <time>2019-05-17T14:21:37Z</time>
      </trkpt>
      <trkpt lat="49.01368" lon="2.05687">
        <ele>22</ele>
        <time>2019-05-17T14:21:49Z</time>
      </trkpt>
      <trkpt lat="49.01361" lon="2.05675">
        <ele>22</ele>
        <time>2019-05-17T14:21:56Z</time>
      </trkpt>
      <trkpt lat="49.01356" lon="2.0566">
        <ele>22</ele>
        <time>2019-05-17T14:22:03Z</time>
      </trkpt>
      <trkpt lat="49.01351" lon="2.05647">
        <ele>22</ele>
        <time>2019-05-17T14:22:09Z</time>
      </trkpt>
      <trkpt lat="49.01345" lon="2.05635">
        <ele>22</ele>
        <time>2019-05-17T14:22:15Z</time>
      </trkpt>
      <trkpt lat="49.01336" lon="2.05625">
        <ele>22</ele>
        <time>2019-05-17T14:22:24Z</time>
      </trkpt>
      <trkpt lat="49.01337" lon="2.05639">
        <ele>22</ele>
        <time>2019-05-17T14:22:48Z</time>
      </trkpt>
      <trkpt lat="49.01329" lon="2.05646">
        <ele>24</ele>
        <time>2019-05-17T14:22:57Z</time>
      </trkpt>
      <trkpt lat="49.01323" lon="2.05657">
        <ele>24</ele>
        <time>2019-05-17T14:23:04Z</time>
      </trkpt>
      <trkpt lat="49.01321" lon="2.05671">
        <ele>24</ele>
        <time>2019-05-17T14:23:12Z</time>
      </trkpt>
      <trkpt lat="49.01322" lon="2.05685">
        <ele>24</ele>
        <time>2019-05-17T14:23:39Z</time>
      </trkpt>
      <trkpt lat="49.01313" lon="2.05692">
        <ele>24</ele>
        <time>2019-05-17T14:23:50Z</time>
      </trkpt>
      <trkpt lat="49.01304" lon="2.05697">
        <ele>24</ele>
        <time>2019-05-17T14:23:54Z</time>
      </trkpt>
      <trkpt lat="49.01294" lon="2.05705">
        <ele>24</ele>
        <time>2019-05-17T14:23:59Z</time>
      </trkpt>
      <trkpt lat="49.01284" lon="2.05709">
        <ele>24</ele>
        <time>2019-05-17T14:24:04Z</time>
      </trkpt>
      <trkpt lat="49.01273" lon="2.05717">
        <ele>24</ele>
        <time>2019-05-17T14:24:10Z</time>
      </trkpt>
      <trkpt lat="49.01266" lon="2.05727">
        <ele>24</ele>
        <time>2019-05-17T14:24:15Z</time>
      </trkpt>
      <trkpt lat="49.0126" lon="2.05738">
        <ele>23</ele>
        <time>2019-05-17T14:24:20Z</time>
      </trkpt>
      <trkpt lat="49.01252" lon="2.05748">
        <ele>23</ele>
        <time>2019-05-17T14:24:27Z</time>
      </trkpt>
      <trkpt lat="49.01244" lon="2.05758">
        <ele>23</ele>
        <time>2019-05-17T14:24:35Z</time>
      </trkpt>
      <trkpt lat="49.01237" lon="2.05769">
        <ele>22</ele>
        <time>2019-05-17T14:24:44Z</time>
      </trkpt>
      <trkpt lat="49.0123" lon="2.05779">
        <ele>22</ele>
        <time>2019-05-17T14:24:51Z</time>
      </trkpt>
      <trkpt lat="49.01222" lon="2.05789">
        <ele>22</ele>
        <time>2019-05-17T14:25:00Z</time>
      </trkpt>
      <trkpt lat="49.01215" lon="2.05798">
        <ele>22</ele>
        <time>2019-05-17T14:25:07Z</time>
      </trkpt>
      <trkpt lat="49.01209" lon="2.05808">
        <ele>22</ele>
        <time>2019-05-17T14:25:15Z</time>
      </trkpt>
      <trkpt lat="49.01202" lon="2.0582">
        <ele>22</ele>
        <time>2019-05-17T14:25:22Z</time>
      </trkpt>
      <trkpt lat="49.01195" lon="2.05831">
        <ele>21</ele>
        <time>2019-05-17T14:25:28Z</time>
      </trkpt>
      <trkpt lat="49.0119" lon="2.05844">
        <ele>22</ele>
        <time>2019-05-17T14:25:35Z</time>
      </trkpt>
      <trkpt lat="49.01183" lon="2.05855">
        <ele>22</ele>
        <time>2019-05-17T14:25:42Z</time>
      </trkpt>
      <trkpt lat="49.01176" lon="2.05864">
        <ele>22</ele>
        <time>2019-05-17T14:25:50Z</time>
      </trkpt>
      <trkpt lat="49.0117" lon="2.05874">
        <ele>22</ele>
        <time>2019-05-17T14:25:57Z</time>
      </trkpt>
      <trkpt lat="49.01163" lon="2.05885">
        <ele>21</ele>
        <time>2019-05-17T14:26:04Z</time>
      </trkpt>
      <trkpt lat="49.01157" lon="2.05898">
        <ele>21</ele>
        <time>2019-05-17T14:26:10Z</time>
      </trkpt>
      <trkpt lat="49.0115" lon="2.05907">
        <ele>21</ele>
        <time>2019-05-17T14:26:16Z</time>
      </trkpt>
      <trkpt lat="49.01144" lon="2.05917">
        <ele>22</ele>
        <time>2019-05-17T14:26:24Z</time>
      </trkpt>
      <trkpt lat="49.01139" lon="2.05931">
        <ele>22</ele>
        <time>2019-05-17T14:26:32Z</time>
      </trkpt>
      <trkpt lat="49.01132" lon="2.05942">
        <ele>22</ele>
        <time>2019-05-17T14:26:39Z</time>
      </trkpt>
      <trkpt lat="49.01126" lon="2.05954">
        <ele>22</ele>
        <time>2019-05-17T14:26:46Z</time>
      </trkpt>
      <trkpt lat="49.01119" lon="2.05965">
        <ele>22</ele>
        <time>2019-05-17T14:26:54Z</time>
      </trkpt>
      <trkpt lat="49.01111" lon="2.05975">
        <ele>22</ele>
        <time>2019-05-17T14:27:01Z</time>
      </trkpt>
      <trkpt lat="49.01103" lon="2.05985">
        <ele>21</ele>
        <time>2019-05-17T14:27:09Z</time>
      </trkpt>
      <trkpt lat="49.01096" lon="2.05998">
        <ele>21</ele>
        <time>2019-05-17T14:27:17Z</time>
      </trkpt>
      <trkpt lat="49.0109" lon="2.06009">
        <ele>21</ele>
        <time>2019-05-17T14:27:26Z</time>
      </trkpt>
      <trkpt lat="49.01083" lon="2.06019">
        <ele>20</ele>
        <time>2019-05-17T14:27:33Z</time>
      </trkpt>
      <trkpt lat="49.01077" lon="2.06029">
        <ele>20</ele>
        <time>2019-05-17T14:27:40Z</time>
      </trkpt>
      <trkpt lat="49.01069" lon="2.06038">
        <ele>20</ele>
        <time>2019-05-17T14:27:47Z</time>
      </trkpt>
      <trkpt lat="49.01062" lon="2.06047">
        <ele>21</ele>
        <time>2019-05-17T14:27:54Z</time>
      </trkpt>
      <trkpt lat="49.01054" lon="2.06055">
        <ele>21</ele>
        <time>2019-05-17T14:28:02Z</time>
      </trkpt>
      <trkpt lat="49.01045" lon="2.06062">
        <ele>20</ele>
        <time>2019-05-17T14:28:09Z</time>
      </trkpt>
      <trkpt lat="49.01038" lon="2.06072">
        <ele>20</ele>
        <time>2019-05-17T14:28:16Z</time>
      </trkpt>
      <trkpt lat="49.0103" lon="2.06081">
        <ele>20</ele>
        <time>2019-05-17T14:28:22Z</time>
      </trkpt>
      <trkpt lat="49.01023" lon="2.06091">
        <ele>22</ele>
        <time>2019-05-17T14:28:30Z</time>
      </trkpt>
      <trkpt lat="49.01015" lon="2.06101">
        <ele>22</ele>
        <time>2019-05-17T14:28:38Z</time>
      </trkpt>
      <trkpt lat="49.01006" lon="2.06108">
        <ele>22</ele>
        <time>2019-05-17T14:28:44Z</time>
      </trkpt>
      <trkpt lat="49.00999" lon="2.06119">
        <ele>21</ele>
        <time>2019-05-17T14:28:50Z</time>
      </trkpt>
      <trkpt lat="49.0099" lon="2.06128">
        <ele>21</ele>
        <time>2019-05-17T14:29:00Z</time>
      </trkpt>
      <trkpt lat="49.00982" lon="2.06138">
        <ele>21</ele>
        <time>2019-05-17T14:29:07Z</time>
      </trkpt>
      <trkpt lat="49.00975" lon="2.06146">
        <ele>21</ele>
        <time>2019-05-17T14:29:13Z</time>
      </trkpt>
      <trkpt lat="49.00968" lon="2.06156">
        <ele>21</ele>
        <time>2019-05-17T14:29:21Z</time>
      </trkpt>
      <trkpt lat="49.00961" lon="2.06164">
        <ele>21</ele>
        <time>2019-05-17T14:29:30Z</time>
      </trkpt>
      <trkpt lat="49.00953" lon="2.06172">
        <ele>22</ele>
        <time>2019-05-17T14:29:37Z</time>
      </trkpt>
      <trkpt lat="49.00946" lon="2.06183">
        <ele>22</ele>
        <time>2019-05-17T14:29:44Z</time>
      </trkpt>
      <trkpt lat="49.00938" lon="2.06192">
        <ele>21</ele>
        <time>2019-05-17T14:29:51Z</time>
      </trkpt>
      <trkpt lat="49.00931" lon="2.06202">
        <ele>21</ele>
        <time>2019-05-17T14:29:58Z</time>
      </trkpt>
      <trkpt lat="49.00924" lon="2.06212">
        <ele>22</ele>
        <time>2019-05-17T14:30:04Z</time>
      </trkpt>
      <trkpt lat="49.00917" lon="2.06221">
        <ele>21</ele>
        <time>2019-05-17T14:30:11Z</time>
      </trkpt>
      <trkpt lat="49.00911" lon="2.06231">
        <ele>21</ele>
        <time>2019-05-17T14:30:18Z</time>
      </trkpt>
      <trkpt lat="49.00903" lon="2.0624">
        <ele>21</ele>
        <time>2019-05-17T14:30:24Z</time>
      </trkpt>
      <trkpt lat="49.00896" lon="2.06249">
        <ele>21</ele>
        <time>2019-05-17T14:30:30Z</time>
      </trkpt>
      <trkpt lat="49.00889" lon="2.06258">
        <ele>21</ele>
        <time>2019-05-17T14:30:36Z</time>
      </trkpt>
      <trkpt lat="49.00883" lon="2.06269">
        <ele>21</ele>
        <time>2019-05-17T14:30:41Z</time>
      </trkpt>
      <trkpt lat="49.00876" lon="2.06279">
        <ele>21</ele>
        <time>2019-05-17T14:30:47Z</time>
      </trkpt>
      <trkpt lat="49.00869" lon="2.06288">
        <ele>21</ele>
        <time>2019-05-17T14:30:53Z</time>
      </trkpt>
      <trkpt lat="49.00862" lon="2.06299">
        <ele>21</ele>
        <time>2019-05-17T14:30:58Z</time>
      </trkpt>
      <trkpt lat="49.00855" lon="2.06309">
        <ele>21</ele>
        <time>2019-05-17T14:31:13Z</time>
      </trkpt>
      <trkpt lat="49.00846" lon="2.06316">
        <ele>21</ele>
        <time>2019-05-17T14:31:19Z</time>
      </trkpt>
      <trkpt lat="49.00838" lon="2.06329">
        <ele>21</ele>
        <time>2019-05-17T14:31:28Z</time>
      </trkpt>
      <trkpt lat="49.00833" lon="2.06341">
        <ele>22</ele>
        <time>2019-05-17T14:31:35Z</time>
      </trkpt>
      <trkpt lat="49.00829" lon="2.06354">
        <ele>22</ele>
        <time>2019-05-17T14:31:40Z</time>
      </trkpt>
      <trkpt lat="49.00822" lon="2.06367">
        <ele>22</ele>
        <time>2019-05-17T14:31:47Z</time>
      </trkpt>
      <trkpt lat="49.00814" lon="2.06378">
        <ele>23</ele>
        <time>2019-05-17T14:31:53Z</time>
      </trkpt>
      <trkpt lat="49.00807" lon="2.06387">
        <ele>23</ele>
        <time>2019-05-17T14:32:03Z</time>
      </trkpt>
      <trkpt lat="49.00801" lon="2.06398">
        <ele>23</ele>
        <time>2019-05-17T14:32:14Z</time>
      </trkpt>
      <trkpt lat="49.00794" lon="2.06408">
        <ele>23</ele>
        <time>2019-05-17T14:32:22Z</time>
      </trkpt>
      <trkpt lat="49.00792" lon="2.06422">
        <ele>23</ele>
        <time>2019-05-17T14:32:32Z</time>
      </trkpt>
      <trkpt lat="49.00784" lon="2.06429">
        <ele>23</ele>
        <time>2019-05-17T14:32:39Z</time>
      </trkpt>
      <trkpt lat="49.00774" lon="2.06428">
        <ele>23</ele>
        <time>2019-05-17T14:32:43Z</time>
      </trkpt>
      <trkpt lat="49.00765" lon="2.06439">
        <ele>23</ele>
        <time>2019-05-17T14:32:47Z</time>
      </trkpt>
      <trkpt lat="49.00756" lon="2.06448">
        <ele>23</ele>
        <time>2019-05-17T14:32:57Z</time>
      </trkpt>
      <trkpt lat="49.00753" lon="2.06462">
        <ele>23</ele>
        <time>2019-05-17T14:33:04Z</time>
      </trkpt>
      <trkpt lat="49.00749" lon="2.06479">
        <ele>24</ele>
        <time>2019-05-17T14:33:17Z</time>
      </trkpt>
      <trkpt lat="49.00743" lon="2.0649">
        <ele>24</ele>
        <time>2019-05-17T14:33:26Z</time>
      </trkpt>
      <trkpt lat="49.00737" lon="2.06508">
        <ele>23</ele>
        <time>2019-05-17T14:33:33Z</time>
      </trkpt>
      <trkpt lat="49.00729" lon="2.06516">
        <ele>23</ele>
        <time>2019-05-17T14:33:38Z</time>
      </trkpt>
      <trkpt lat="49.0072" lon="2.06527">
        <ele>23</ele>
        <time>2019-05-17T14:33:41Z</time>
      </trkpt>
      <trkpt lat="49.0071" lon="2.0653">
        <ele>23</ele>
        <time>2019-05-17T14:33:45Z</time>
      </trkpt>
      <trkpt lat="49.00703" lon="2.06539">
        <ele>23</ele>
        <time>2019-05-17T14:33:49Z</time>
      </trkpt>
      <trkpt lat="49.00695" lon="2.06548">
        <ele>23</ele>
        <time>2019-05-17T14:33:54Z</time>
      </trkpt>
      <trkpt lat="49.00688" lon="2.06557">
        <ele>23</ele>
        <time>2019-05-17T14:33:58Z</time>
      </trkpt>
      <trkpt lat="49.0068" lon="2.06567">
        <ele>23</ele>
        <time>2019-05-17T14:34:03Z</time>
      </trkpt>
      <trkpt lat="49.00676" lon="2.0658">
        <ele>22</ele>
        <time>2019-05-17T14:34:10Z</time>
      </trkpt>
      <trkpt lat="49.00669" lon="2.06592">
        <ele>22</ele>
        <time>2019-05-17T14:34:16Z</time>
      </trkpt>
      <trkpt lat="49.00662" lon="2.06603">
        <ele>22</ele>
        <time>2019-05-17T14:34:23Z</time>
      </trkpt>
      <trkpt lat="49.00656" lon="2.06613">
        <ele>22</ele>
        <time>2019-05-17T14:34:29Z</time>
      </trkpt>
      <trkpt lat="49.00648" lon="2.06622">
        <ele>21</ele>
        <time>2019-05-17T14:34:36Z</time>
      </trkpt>
      <trkpt lat="49.00641" lon="2.06634">
        <ele>21</ele>
        <time>2019-05-17T14:34:44Z</time>
      </trkpt>
      <trkpt lat="49.00634" lon="2.06643">
        <ele>21</ele>
        <time>2019-05-17T14:34:50Z</time>
      </trkpt>
      <trkpt lat="49.00628" lon="2.06654">
        <ele>21</ele>
        <time>2019-05-17T14:34:57Z</time>
      </trkpt>
      <trkpt lat="49.00621" lon="2.06664">
        <ele>21</ele>
        <time>2019-05-17T14:35:05Z</time>
      </trkpt>
      <trkpt lat="49.00614" lon="2.06676">
        <ele>21</ele>
        <time>2019-05-17T14:35:12Z</time>
      </trkpt>
      <trkpt lat="49.00606" lon="2.06683">
        <ele>21</ele>
        <time>2019-05-17T14:35:18Z</time>
      </trkpt>
      <trkpt lat="49.00599" lon="2.06693">
        <ele>21</ele>
        <time>2019-05-17T14:35:23Z</time>
      </trkpt>
      <trkpt lat="49.00592" lon="2.06701">
        <ele>21</ele>
        <time>2019-05-17T14:35:29Z</time>
      </trkpt>
      <trkpt lat="49.00584" lon="2.06712">
        <ele>21</ele>
        <time>2019-05-17T14:35:37Z</time>
      </trkpt>
      <trkpt lat="49.00578" lon="2.06723">
        <ele>21</ele>
        <time>2019-05-17T14:35:45Z</time>
      </trkpt>
      <trkpt lat="49.00573" lon="2.06735">
        <ele>21</ele>
        <time>2019-05-17T14:35:52Z</time>
      </trkpt>
      <trkpt lat="49.00566" lon="2.06747">
        <ele>21</ele>
        <time>2019-05-17T14:36:00Z</time>
      </trkpt>
      <trkpt lat="49.00559" lon="2.06757">
        <ele>21</ele>
        <time>2019-05-17T14:36:07Z</time>
      </trkpt>
      <trkpt lat="49.00553" lon="2.06767">
        <ele>21</ele>
        <time>2019-05-17T14:36:15Z</time>
      </trkpt>
      <trkpt lat="49.00543" lon="2.06774">
        <ele>21</ele>
        <time>2019-05-17T14:36:22Z</time>
      </trkpt>
      <trkpt lat="49.00535" lon="2.06781">
        <ele>21</ele>
        <time>2019-05-17T14:36:27Z</time>
      </trkpt>
      <trkpt lat="49.00527" lon="2.06788">
        <ele>22</ele>
        <time>2019-05-17T14:36:33Z</time>
      </trkpt>
      <trkpt lat="49.00519" lon="2.06796">
        <ele>22</ele>
        <time>2019-05-17T14:36:40Z</time>
      </trkpt>
      <trkpt lat="49.0051" lon="2.06803">
        <ele>22</ele>
        <time>2019-05-17T14:36:48Z</time>
      </trkpt>
      <trkpt lat="49.00501" lon="2.0681">
        <ele>22</ele>
        <time>2019-05-17T14:36:55Z</time>
      </trkpt>
      <trkpt lat="49.00493" lon="2.06818">
        <ele>22</ele>
        <time>2019-05-17T14:37:01Z</time>
      </trkpt>
      <trkpt lat="49.00485" lon="2.06826">
        <ele>22</ele>
        <time>2019-05-17T14:37:09Z</time>
      </trkpt>
      <trkpt lat="49.00477" lon="2.06833">
        <ele>22</ele>
        <time>2019-05-17T14:37:15Z</time>
      </trkpt>
      <trkpt lat="49.00469" lon="2.06841">
        <ele>21</ele>
        <time>2019-05-17T14:37:21Z</time>
      </trkpt>
      <trkpt lat="49.00463" lon="2.06852">
        <ele>21</ele>
        <time>2019-05-17T14:37:31Z</time>
      </trkpt>
      <trkpt lat="49.00454" lon="2.0686">
        <ele>21</ele>
        <time>2019-05-17T14:37:38Z</time>
      </trkpt>
      <trkpt lat="49.00445" lon="2.06868">
        <ele>21</ele>
        <time>2019-05-17T14:37:45Z</time>
      </trkpt>
      <trkpt lat="49.00438" lon="2.06879">
        <ele>20</ele>
        <time>2019-05-17T14:37:52Z</time>
      </trkpt>
      <trkpt lat="49.0043" lon="2.06887">
        <ele>20</ele>
        <time>2019-05-17T14:37:58Z</time>
      </trkpt>
      <trkpt lat="49.00422" lon="2.06894">
        <ele>20</ele>
        <time>2019-05-17T14:38:05Z</time>
      </trkpt>
      <trkpt lat="49.00414" lon="2.06903">
        <ele>19</ele>
        <time>2019-05-17T14:38:13Z</time>
      </trkpt>
      <trkpt lat="49.00407" lon="2.06912">
        <ele>19</ele>
        <time>2019-05-17T14:38:20Z</time>
      </trkpt>
      <trkpt lat="49.00399" lon="2.06919">
        <ele>20</ele>
        <time>2019-05-17T14:38:27Z</time>
      </trkpt>
      <trkpt lat="49.0039" lon="2.06925">
        <ele>20</ele>
        <time>2019-05-17T14:38:34Z</time>
      </trkpt>
      <trkpt lat="49.00382" lon="2.06934">
        <ele>20</ele>
        <time>2019-05-17T14:38:39Z</time>
      </trkpt>
      <trkpt lat="49.00375" lon="2.06942">
        <ele>20</ele>
        <time>2019-05-17T14:38:47Z</time>
      </trkpt>
      <trkpt lat="49.00367" lon="2.06949">
        <ele>20</ele>
        <time>2019-05-17T14:38:54Z</time>
      </trkpt>
      <trkpt lat="49.00358" lon="2.06954">
        <ele>20</ele>
        <time>2019-05-17T14:39:00Z</time>
      </trkpt>
      <trkpt lat="49.00349" lon="2.0696">
        <ele>20</ele>
        <time>2019-05-17T14:39:05Z</time>
      </trkpt>
      <trkpt lat="49.00341" lon="2.06967">
        <ele>20</ele>
        <time>2019-05-17T14:39:12Z</time>
      </trkpt>
      <trkpt lat="49.00332" lon="2.06975">
        <ele>21</ele>
        <time>2019-05-17T14:39:20Z</time>
      </trkpt>
      <trkpt lat="49.00324" lon="2.06986">
        <ele>21</ele>
        <time>2019-05-17T14:39:30Z</time>
      </trkpt>
      <trkpt lat="49.00316" lon="2.06995">
        <ele>21</ele>
        <time>2019-05-17T14:39:37Z</time>
      </trkpt>
      <trkpt lat="49.00306" lon="2.06999">
        <ele>21</ele>
        <time>2019-05-17T14:39:44Z</time>
      </trkpt>
      <trkpt lat="49.00298" lon="2.07008">
        <ele>21</ele>
        <time>2019-05-17T14:39:51Z</time>
      </trkpt>
      <trkpt lat="49.00289" lon="2.07014">
        <ele>21</ele>
        <time>2019-05-17T14:39:57Z</time>
      </trkpt>
      <trkpt lat="49.00281" lon="2.07024">
        <ele>21</ele>
        <time>2019-05-17T14:40:04Z</time>
      </trkpt>
      <trkpt lat="49.00272" lon="2.07032">
        <ele>21</ele>
        <time>2019-05-17T14:40:16Z</time>
      </trkpt>
      <trkpt lat="49.00265" lon="2.07041">
        <ele>21</ele>
        <time>2019-05-17T14:40:24Z</time>
      </trkpt>
      <trkpt lat="49.00258" lon="2.07051">
        <ele>20</ele>
        <time>2019-05-17T14:40:34Z</time>
      </trkpt>
      <trkpt lat="49.00248" lon="2.07054">
        <ele>21</ele>
        <time>2019-05-17T14:40:42Z</time>
      </trkpt>
      <trkpt lat="49.00237" lon="2.07055">
        <ele>21</ele>
        <time>2019-05-17T14:40:51Z</time>
      </trkpt>
      <trkpt lat="49.00228" lon="2.07062">
        <ele>21</ele>
        <time>2019-05-17T14:40:56Z</time>
      </trkpt>
      <trkpt lat="49.00223" lon="2.07074">
        <ele>21</ele>
        <time>2019-05-17T14:41:01Z</time>
      </trkpt>
      <trkpt lat="49.00213" lon="2.07072">
        <ele>21</ele>
        <time>2019-05-17T14:41:12Z</time>
      </trkpt>
      <trkpt lat="49.00204" lon="2.07075">
        <ele>21</ele>
        <time>2019-05-17T14:41:19Z</time>
      </trkpt>
      <trkpt lat="49.00195" lon="2.07082">
        <ele>21</ele>
        <time>2019-05-17T14:41:23Z</time>
      </trkpt>
      <trkpt lat="49.00187" lon="2.0709">
        <ele>22</ele>
        <time>2019-05-17T14:41:28Z</time>
      </trkpt>
      <trkpt lat="49.00177" lon="2.07095">
        <ele>22</ele>
        <time>2019-05-17T14:41:34Z</time>
      </trkpt>
      <trkpt lat="49.00167" lon="2.07097">
        <ele>22</ele>
        <time>2019-05-17T14:41:42Z</time>
      </trkpt>
      <trkpt lat="49.00156" lon="2.07099">
        <ele>22</ele>
        <time>2019-05-17T14:41:48Z</time>
      </trkpt>
      <trkpt lat="49.00148" lon="2.07105">
        <ele>22</ele>
        <time>2019-05-17T14:41:54Z</time>
      </trkpt>
      <trkpt lat="49.00138" lon="2.07108">
        <ele>22</ele>
        <time>2019-05-17T14:42:00Z</time>
      </trkpt>
      <trkpt lat="49.00128" lon="2.07111">
        <ele>22</ele>
        <time>2019-05-17T14:42:07Z</time>
      </trkpt>
      <trkpt lat="49.00118" lon="2.07112">
        <ele>22</ele>
        <time>2019-05-17T14:42:13Z</time>
      </trkpt>
      <trkpt lat="49.00109" lon="2.07113">
        <ele>22</ele>
        <time>2019-05-17T14:42:20Z</time>
      </trkpt>
      <trkpt lat="49.00099" lon="2.07114">
        <ele>22</ele>
        <time>2019-05-17T14:42:28Z</time>
      </trkpt>
      <trkpt lat="49.00089" lon="2.07115">
        <ele>22</ele>
        <time>2019-05-17T14:42:36Z</time>
      </trkpt>
      <trkpt lat="49.0008" lon="2.07121">
        <ele>22</ele>
        <time>2019-05-17T14:42:49Z</time>
      </trkpt>
      <trkpt lat="49.00071" lon="2.07124">
        <ele>22</ele>
        <time>2019-05-17T14:42:57Z</time>
      </trkpt>
      <trkpt lat="49.00062" lon="2.07125">
        <ele>22</ele>
        <time>2019-05-17T14:43:03Z</time>
      </trkpt>
      <trkpt lat="49.00052" lon="2.07123">
        <ele>22</ele>
        <time>2019-05-17T14:43:08Z</time>
      </trkpt>
      <trkpt lat="49.00043" lon="2.07118">
        <ele>22</ele>
        <time>2019-05-17T14:43:13Z</time>
      </trkpt>
      <trkpt lat="49.00034" lon="2.07113">
        <ele>22</ele>
        <time>2019-05-17T14:43:22Z</time>
      </trkpt>
      <trkpt lat="49.00027" lon="2.07104">
        <ele>23</ele>
        <time>2019-05-17T14:43:30Z</time>
      </trkpt>
      <trkpt lat="49.00018" lon="2.071">
        <ele>23</ele>
        <time>2019-05-17T14:43:37Z</time>
      </trkpt>
      <trkpt lat="49.00007" lon="2.07096">
        <ele>23</ele>
        <time>2019-05-17T14:43:42Z</time>
      </trkpt>
      <trkpt lat="48.99998" lon="2.07089">
        <ele>23</ele>
        <time>2019-05-17T14:43:47Z</time>
      </trkpt>
      <trkpt lat="48.99988" lon="2.07087">
        <ele>23</ele>
        <time>2019-05-17T14:43:55Z</time>
      </trkpt>
      <trkpt lat="48.99979" lon="2.07089">
        <ele>22</ele>
        <time>2019-05-17T14:44:02Z</time>
      </trkpt>
      <trkpt lat="48.9997" lon="2.07095">
        <ele>22</ele>
        <time>2019-05-17T14:44:10Z</time>
      </trkpt>
      <trkpt lat="48.99962" lon="2.071">
        <ele>22</ele>
        <time>2019-05-17T14:44:17Z</time>
      </trkpt>
      <trkpt lat="48.99952" lon="2.07107">
        <ele>22</ele>
        <time>2019-05-17T14:44:24Z</time>
      </trkpt>
      <trkpt lat="48.99942" lon="2.07109">
        <ele>22</ele>
        <time>2019-05-17T14:44:29Z</time>
      </trkpt>
      <trkpt lat="48.99934" lon="2.07116">
        <ele>22</ele>
        <time>2019-05-17T14:44:37Z</time>
      </trkpt>
      <trkpt lat="48.99925" lon="2.07121">
        <ele>22</ele>
        <time>2019-05-17T14:44:46Z</time>
      </trkpt>
      <trkpt lat="48.99915" lon="2.07118">
        <ele>21</ele>
        <time>2019-05-17T14:44:52Z</time>
      </trkpt>
      <trkpt lat="48.99905" lon="2.07119">
        <ele>21</ele>
        <time>2019-05-17T14:44:58Z</time>
      </trkpt>
      <trkpt lat="48.99894" lon="2.07123">
        <ele>21</ele>
        <time>2019-05-17T14:45:05Z</time>
      </trkpt>
      <trkpt lat="48.99885" lon="2.0713">
        <ele>21</ele>
        <time>2019-05-17T14:45:14Z</time>
      </trkpt>
      <trkpt lat="48.99878" lon="2.07139">
        <ele>21</ele>
        <time>2019-05-17T14:45:24Z</time>
      </trkpt>
      <trkpt lat="48.9987" lon="2.07148">
        <ele>21</ele>
        <time>2019-05-17T14:45:33Z</time>
      </trkpt>
      <trkpt lat="48.99861" lon="2.07153">
        <ele>21</ele>
        <time>2019-05-17T14:45:38Z</time>
      </trkpt>
      <trkpt lat="48.99851" lon="2.07155">
        <ele>20</ele>
        <time>2019-05-17T14:45:44Z</time>
      </trkpt>
      <trkpt lat="48.99842" lon="2.07157">
        <ele>20</ele>
        <time>2019-05-17T14:45:51Z</time>
      </trkpt>
      <trkpt lat="48.99831" lon="2.07158">
        <ele>20</ele>
        <time>2019-05-17T14:45:58Z</time>
      </trkpt>
      <trkpt lat="48.99821" lon="2.07157">
        <ele>20</ele>
        <time>2019-05-17T14:46:06Z</time>
      </trkpt>
      <trkpt lat="48.99812" lon="2.07155">
        <ele>20</ele>
        <time>2019-05-17T14:46:13Z</time>
      </trkpt>
      <trkpt lat="48.99802" lon="2.07153">
        <ele>20</ele>
        <time>2019-05-17T14:46:21Z</time>
      </trkpt>
      <trkpt lat="48.99793" lon="2.0715">
        <ele>20</ele>
        <time>2019-05-17T14:46:29Z</time>
      </trkpt>
      <trkpt lat="48.99784" lon="2.07143">
        <ele>20</ele>
        <time>2019-05-17T14:46:37Z</time>
      </trkpt>
      <trkpt lat="48.99775" lon="2.07136">
        <ele>20</ele>
        <time>2019-05-17T14:46:44Z</time>
      </trkpt>
      <trkpt lat="48.99766" lon="2.0713">
        <ele>20</ele>
        <time>2019-05-17T14:46:50Z</time>
      </trkpt>
      <trkpt lat="48.99757" lon="2.07125">
        <ele>20</ele>
        <time>2019-05-17T14:47:01Z</time>
      </trkpt>
      <trkpt lat="48.99748" lon="2.07119">
        <ele>20</ele>
        <time>2019-05-17T14:47:08Z</time>
      </trkpt>
      <trkpt lat="48.99739" lon="2.07121">
        <ele>20</ele>
        <time>2019-05-17T14:47:15Z</time>
      </trkpt>
      <trkpt lat="48.99729" lon="2.07116">
        <ele>20</ele>
        <time>2019-05-17T14:47:23Z</time>
      </trkpt>
      <trkpt lat="48.9972" lon="2.07117">
        <ele>20</ele>
        <time>2019-05-17T14:47:33Z</time>
      </trkpt>
      <trkpt lat="48.99709" lon="2.07118">
        <ele>20</ele>
        <time>2019-05-17T14:47:41Z</time>
      </trkpt>
      <trkpt lat="48.997" lon="2.07124">
        <ele>19</ele>
        <time>2019-05-17T14:47:46Z</time>
      </trkpt>
      <trkpt lat="48.99692" lon="2.07128">
        <ele>19</ele>
        <time>2019-05-17T14:47:53Z</time>
      </trkpt>
      <trkpt lat="48.99683" lon="2.07128">
        <ele>19</ele>
        <time>2019-05-17T14:48:01Z</time>
      </trkpt>
      <trkpt lat="48.99674" lon="2.07124">
        <ele>19</ele>
        <time>2019-05-17T14:48:08Z</time>
      </trkpt>
      <trkpt lat="48.99664" lon="2.07122">
        <ele>19</ele>
        <time>2019-05-17T14:48:15Z</time>
      </trkpt>
      <trkpt lat="48.99655" lon="2.07118">
        <ele>19</ele>
        <time>2019-05-17T14:48:21Z</time>
      </trkpt>
      <trkpt lat="48.99646" lon="2.07118">
        <ele>19</ele>
        <time>2019-05-17T14:48:29Z</time>
      </trkpt>
      <trkpt lat="48.99636" lon="2.07114">
        <ele>19</ele>
        <time>2019-05-17T14:48:36Z</time>
      </trkpt>
      <trkpt lat="48.99628" lon="2.07109">
        <ele>19</ele>
        <time>2019-05-17T14:48:43Z</time>
      </trkpt>
      <trkpt lat="48.99618" lon="2.07106">
        <ele>19</ele>
        <time>2019-05-17T14:48:50Z</time>
      </trkpt>
      <trkpt lat="48.99607" lon="2.07105">
        <ele>19</ele>
        <time>2019-05-17T14:48:57Z</time>
      </trkpt>
      <trkpt lat="48.99598" lon="2.07103">
        <ele>19</ele>
        <time>2019-05-17T14:49:05Z</time>
      </trkpt>
      <trkpt lat="48.99589" lon="2.07099">
        <ele>19</ele>
        <time>2019-05-17T14:49:12Z</time>
      </trkpt>
      <trkpt lat="48.9958" lon="2.07097">
        <ele>19</ele>
        <time>2019-05-17T14:49:22Z</time>
      </trkpt>
      <trkpt lat="48.9957" lon="2.07098">
        <ele>19</ele>
        <time>2019-05-17T14:49:34Z</time>
      </trkpt>
      <trkpt lat="48.9956" lon="2.071">
        <ele>19</ele>
        <time>2019-05-17T14:49:48Z</time>
      </trkpt>
      <trkpt lat="48.99549" lon="2.07102">
        <ele>19</ele>
        <time>2019-05-17T14:49:54Z</time>
      </trkpt>
      <trkpt lat="48.99539" lon="2.071">
        <ele>19</ele>
        <time>2019-05-17T14:50:04Z</time>
      </trkpt>
      <trkpt lat="48.99529" lon="2.07101">
        <ele>19</ele>
        <time>2019-05-17T14:50:13Z</time>
      </trkpt>
      <trkpt lat="48.9952" lon="2.07103">
        <ele>19</ele>
        <time>2019-05-17T14:50:22Z</time>
      </trkpt>
      <trkpt lat="48.9951" lon="2.07101">
        <ele>19</ele>
        <time>2019-05-17T14:50:30Z</time>
      </trkpt>
      <trkpt lat="48.99501" lon="2.07101">
        <ele>19</ele>
        <time>2019-05-17T14:50:36Z</time>
      </trkpt>
      <trkpt lat="48.99491" lon="2.07102">
        <ele>20</ele>
        <time>2019-05-17T14:50:42Z</time>
      </trkpt>
      <trkpt lat="48.99481" lon="2.07102">
        <ele>20</ele>
        <time>2019-05-17T14:50:47Z</time>
      </trkpt>
      <trkpt lat="48.9947" lon="2.07102">
        <ele>20</ele>
        <time>2019-05-17T14:50:51Z</time>
      </trkpt>
      <trkpt lat="48.99461" lon="2.071">
        <ele>20</ele>
        <time>2019-05-17T14:50:56Z</time>
      </trkpt>
      <trkpt lat="48.99452" lon="2.07099">
        <ele>20</ele>
        <time>2019-05-17T14:51:05Z</time>
      </trkpt>
      <trkpt lat="48.99443" lon="2.071">
        <ele>20</ele>
        <time>2019-05-17T14:51:10Z</time>
      </trkpt>
      <trkpt lat="48.99433" lon="2.07102">
        <ele>20</ele>
        <time>2019-05-17T14:51:17Z</time>
      </trkpt>
      <trkpt lat="48.99424" lon="2.07105">
        <ele>20</ele>
        <time>2019-05-17T14:51:25Z</time>
      </trkpt>
      <trkpt lat="48.99414" lon="2.07106">
        <ele>21</ele>
        <time>2019-05-17T14:51:32Z</time>
      </trkpt>
      <trkpt lat="48.99404" lon="2.07108">
        <ele>21</ele>
        <time>2019-05-17T14:51:39Z</time>
      </trkpt>
      <trkpt lat="48.99395" lon="2.0711">
        <ele>21</ele>
        <time>2019-05-17T14:51:48Z</time>
      </trkpt>
      <trkpt lat="48.99386" lon="2.07113">
        <ele>21</ele>
        <time>2019-05-17T14:51:57Z</time>
      </trkpt>
      <trkpt lat="48.99378" lon="2.07122">
        <ele>21</ele>
        <time>2019-05-17T14:52:09Z</time>
      </trkpt>
      <trkpt lat="48.99369" lon="2.07126">
        <ele>21</ele>
        <time>2019-05-17T14:52:15Z</time>
      </trkpt>
      <trkpt lat="48.9936" lon="2.0713">
        <ele>21</ele>
        <time>2019-05-17T14:52:21Z</time>
      </trkpt>
      <trkpt lat="48.99351" lon="2.07135">
        <ele>21</ele>
        <time>2019-05-17T14:52:25Z</time>
      </trkpt>
      <trkpt lat="48.99342" lon="2.0714">
        <ele>21</ele>
        <time>2019-05-17T14:52:32Z</time>
      </trkpt>
      <trkpt lat="48.99332" lon="2.0714">
        <ele>21</ele>
        <time>2019-05-17T14:52:41Z</time>
      </trkpt>
      <trkpt lat="48.99323" lon="2.07147">
        <ele>20</ele>
        <time>2019-05-17T14:52:48Z</time>
      </trkpt>
      <trkpt lat="48.99314" lon="2.07153">
        <ele>20</ele>
        <time>2019-05-17T14:52:55Z</time>
      </trkpt>
      <trkpt lat="48.99305" lon="2.07156">
        <ele>20</ele>
        <time>2019-05-17T14:53:02Z</time>
      </trkpt>
      <trkpt lat="48.99295" lon="2.07158">
        <ele>20</ele>
        <time>2019-05-17T14:53:08Z</time>
      </trkpt>
      <trkpt lat="48.99286" lon="2.07161">
        <ele>20</ele>
        <time>2019-05-17T14:53:15Z</time>
      </trkpt>
      <trkpt lat="48.99276" lon="2.07165">
        <ele>20</ele>
        <time>2019-05-17T14:53:25Z</time>
      </trkpt>
      <trkpt lat="48.99267" lon="2.07168">
        <ele>19</ele>
        <time>2019-05-17T14:53:32Z</time>
      </trkpt>
      <trkpt lat="48.99258" lon="2.07171">
        <ele>19</ele>
        <time>2019-05-17T14:53:37Z</time>
      </trkpt>
      <trkpt lat="48.99249" lon="2.07175">
        <ele>19</ele>
        <time>2019-05-17T14:53:43Z</time>
      </trkpt>
      <trkpt lat="48.9924" lon="2.07173">
        <ele>19</ele>
        <time>2019-05-17T14:53:49Z</time>
      </trkpt>
      <trkpt lat="48.9923" lon="2.07175">
        <ele>19</ele>
        <time>2019-05-17T14:53:56Z</time>
      </trkpt>
      <trkpt lat="48.9922" lon="2.07176">
        <ele>20</ele>
        <time>2019-05-17T14:54:05Z</time>
      </trkpt>
      <trkpt lat="48.99209" lon="2.07178">
        <ele>20</ele>
        <time>2019-05-17T14:54:11Z</time>
      </trkpt>
      <trkpt lat="48.99201" lon="2.07185">
        <ele>20</ele>
        <time>2019-05-17T14:54:15Z</time>
      </trkpt>
      <trkpt lat="48.99192" lon="2.07189">
        <ele>20</ele>
        <time>2019-05-17T14:54:25Z</time>
      </trkpt>
      <trkpt lat="48.99183" lon="2.07189">
        <ele>20</ele>
        <time>2019-05-17T14:54:32Z</time>
      </trkpt>
      <trkpt lat="48.99172" lon="2.07191">
        <ele>20</ele>
        <time>2019-05-17T14:54:40Z</time>
      </trkpt>
      <trkpt lat="48.99162" lon="2.07194">
        <ele>21</ele>
        <time>2019-05-17T14:54:48Z</time>
      </trkpt>
      <trkpt lat="48.99153" lon="2.07194">
        <ele>21</ele>
        <time>2019-05-17T14:54:56Z</time>
      </trkpt>
      <trkpt lat="48.99143" lon="2.07194">
        <ele>21</ele>
        <time>2019-05-17T14:55:01Z</time>
      </trkpt>
      <trkpt lat="48.99133" lon="2.07191">
        <ele>21</ele>
        <time>2019-05-17T14:55:07Z</time>
      </trkpt>
      <trkpt lat="48.99124" lon="2.07185">
        <ele>21</ele>
        <time>2019-05-17T14:55:14Z</time>
      </trkpt>
      <trkpt lat="48.99117" lon="2.07176">
        <ele>21</ele>
        <time>2019-05-17T14:55:20Z</time>
      </trkpt>
      <trkpt lat="48.99106" lon="2.07175">
        <ele>21</ele>
        <time>2019-05-17T14:55:25Z</time>
      </trkpt>
      <trkpt lat="48.99097" lon="2.07174">
        <ele>21</ele>
        <time>2019-05-17T14:55:32Z</time>
      </trkpt>
      <trkpt lat="48.99088" lon="2.07174">
        <ele>21</ele>
        <time>2019-05-17T14:55:40Z</time>
      </trkpt>
      <trkpt lat="48.99077" lon="2.0717">
        <ele>21</ele>
        <time>2019-05-17T14:55:48Z</time>
      </trkpt>
      <trkpt lat="48.99068" lon="2.07167">
        <ele>21</ele>
        <time>2019-05-17T14:55:54Z</time>
      </trkpt>
      <trkpt lat="48.99059" lon="2.07164">
        <ele>21</ele>
        <time>2019-05-17T14:56:00Z</time>
      </trkpt>
      <trkpt lat="48.99049" lon="2.07161">
        <ele>21</ele>
        <time>2019-05-17T14:56:07Z</time>
      </trkpt>
      <trkpt lat="48.9904" lon="2.07155">
        <ele>21</ele>
        <time>2019-05-17T14:56:16Z</time>
      </trkpt>
      <trkpt lat="48.99032" lon="2.07149">
        <ele>21</ele>
        <time>2019-05-17T14:56:25Z</time>
      </trkpt>
      <trkpt lat="48.99022" lon="2.07143">
        <ele>20</ele>
        <time>2019-05-17T14:56:32Z</time>
      </trkpt>
      <trkpt lat="48.99013" lon="2.07144">
        <ele>20</ele>
        <time>2019-05-17T14:56:37Z</time>
      </trkpt>
      <trkpt lat="48.99004" lon="2.07138">
        <ele>20</ele>
        <time>2019-05-17T14:56:42Z</time>
      </trkpt>
      <trkpt lat="48.98997" lon="2.07131">
        <ele>20</ele>
        <time>2019-05-17T14:56:50Z</time>
      </trkpt>
      <trkpt lat="48.98987" lon="2.07128">
        <ele>20</ele>
        <time>2019-05-17T14:56:57Z</time>
      </trkpt>
      <trkpt lat="48.98977" lon="2.07128">
        <ele>20</ele>
        <time>2019-05-17T14:57:03Z</time>
      </trkpt>
      <trkpt lat="48.98966" lon="2.07124">
        <ele>20</ele>
        <time>2019-05-17T14:57:10Z</time>
      </trkpt>
      <trkpt lat="48.98961" lon="2.07111">
        <ele>20</ele>
        <time>2019-05-17T14:57:28Z</time>
      </trkpt>
      <trkpt lat="48.98958" lon="2.07098">
        <ele>20</ele>
        <time>2019-05-17T14:57:36Z</time>
      </trkpt>
      <trkpt lat="48.98963" lon="2.07085">
        <ele>20</ele>
        <time>2019-05-17T14:57:43Z</time>
      </trkpt>
      <trkpt lat="48.98958" lon="2.07096">
        <ele>20</ele>
        <time>2019-05-17T14:58:05Z</time>
      </trkpt>
      <trkpt lat="48.98952" lon="2.07107">
        <ele>20</ele>
        <time>2019-05-17T14:58:14Z</time>
      </trkpt>
      <trkpt lat="48.98947" lon="2.07121">
        <ele>20</ele>
        <time>2019-05-17T14:58:24Z</time>
      </trkpt>
      <trkpt lat="48.98941" lon="2.07132">
        <ele>20</ele>
        <time>2019-05-17T14:58:31Z</time>
      </trkpt>
      <trkpt lat="48.98937" lon="2.07147">
        <ele>20</ele>
        <time>2019-05-17T14:58:40Z</time>
      </trkpt>
      <trkpt lat="48.98932" lon="2.07158">
        <ele>19</ele>
        <time>2019-05-17T14:58:49Z</time>
      </trkpt>
      <trkpt lat="48.98926" lon="2.0717">
        <ele>19</ele>
        <time>2019-05-17T14:58:56Z</time>
      </trkpt>
      <trkpt lat="48.98921" lon="2.07181">
        <ele>20</ele>
        <time>2019-05-17T14:59:04Z</time>
      </trkpt>
      <trkpt lat="48.98916" lon="2.07193">
        <ele>20</ele>
        <time>2019-05-17T14:59:12Z</time>
      </trkpt>
      <trkpt lat="48.98914" lon="2.07208">
        <ele>21</ele>
        <time>2019-05-17T14:59:17Z</time>
      </trkpt>
      <trkpt lat="48.9891" lon="2.07221">
        <ele>21</ele>
        <time>2019-05-17T14:59:25Z</time>
      </trkpt>
      <trkpt lat="48.98905" lon="2.07234">
        <ele>22</ele>
        <time>2019-05-17T14:59:30Z</time>
      </trkpt>
      <trkpt lat="48.98899" lon="2.07247">
        <ele>22</ele>
        <time>2019-05-17T14:59:37Z</time>
      </trkpt>
      <trkpt lat="48.98894" lon="2.07259">
        <ele>23</ele>
        <time>2019-05-17T14:59:46Z</time>
      </trkpt>
      <trkpt lat="48.98888" lon="2.07271">
        <ele>23</ele>
        <time>2019-05-17T14:59:52Z</time>
      </trkpt>
      <trkpt lat="48.98883" lon="2.07284">
        <ele>23</ele>
        <time>2019-05-17T15:00:01Z</time>
      </trkpt>
      <trkpt lat="48.98879" lon="2.07297">
        <ele>23</ele>
        <time>2019-05-17T15:00:07Z</time>
      </trkpt>
      <trkpt lat="48.98877" lon="2.07311">
        <ele>23</ele>
        <time>2019-05-17T15:00:12Z</time>
      </trkpt>
      <trkpt lat="48.9887" lon="2.07321">
        <ele>23</ele>
        <time>2019-05-17T15:00:20Z</time>
      </trkpt>
      <trkpt lat="48.9888" lon="2.07319">
        <ele>23</ele>
        <time>2019-05-17T15:00:38Z</time>
      </trkpt>
      <trkpt lat="48.98871" lon="2.07325">
        <ele>24</ele>
        <time>2019-05-17T15:00:53Z</time>
      </trkpt>
      <trkpt lat="48.98865" lon="2.07334">
        <ele>24</ele>
        <time>2019-05-17T15:02:01Z</time>
      </trkpt>
      <trkpt lat="48.98858" lon="2.07345">
        <ele>24</ele>
        <time>2019-05-17T15:02:13Z</time>
      </trkpt>
      <trkpt lat="48.98852" lon="2.07357">
        <ele>24</ele>
        <time>2019-05-17T15:02:26Z</time>
      </trkpt>
      <trkpt lat="48.98848" lon="2.07369">
        <ele>25</ele>
        <time>2019-05-17T15:02:32Z</time>
      </trkpt>
      <trkpt lat="48.98843" lon="2.07381">
        <ele>25</ele>
        <time>2019-05-17T15:02:36Z</time>
      </trkpt>
      <trkpt lat="48.98836" lon="2.07392">
        <ele>24</ele>
        <time>2019-05-17T15:02:44Z</time>
      </trkpt>
      <trkpt lat="48.98831" lon="2.07404">
        <ele>24</ele>
        <time>2019-05-17T15:02:51Z</time>
      </trkpt>
      <trkpt lat="48.98826" lon="2.07415">
        <ele>24</ele>
        <time>2019-05-17T15:02:59Z</time>
      </trkpt>
      <trkpt lat="48.9882" lon="2.07426">
        <ele>24</ele>
        <time>2019-05-17T15:03:06Z</time>
      </trkpt>
      <trkpt lat="48.98818" lon="2.0744">
        <ele>24</ele>
        <time>2019-05-17T15:03:15Z</time>
      </trkpt>
      <trkpt lat="48.98818" lon="2.07454">
        <ele>24</ele>
        <time>2019-05-17T15:03:23Z</time>
      </trkpt>
      <trkpt lat="48.98812" lon="2.07465">
        <ele>24</ele>
        <time>2019-05-17T15:03:32Z</time>
      </trkpt>
      <trkpt lat="48.98805" lon="2.07476">
        <ele>24</ele>
        <time>2019-05-17T15:03:40Z</time>
      </trkpt>
      <trkpt lat="48.98803" lon="2.0749">
        <ele>24</ele>
        <time>2019-05-17T15:03:49Z</time>
      </trkpt>
      <trkpt lat="48.98803" lon="2.07504">
        <ele>24</ele>
        <time>2019-05-17T15:03:55Z</time>
      </trkpt>
      <trkpt lat="48.98804" lon="2.07518">
        <ele>23</ele>
        <time>2019-05-17T15:04:02Z</time>
      </trkpt>
      <trkpt lat="48.98813" lon="2.07523">
        <ele>23</ele>
        <time>2019-05-17T15:04:12Z</time>
      </trkpt>
      <trkpt lat="48.98822" lon="2.07519">
        <ele>24</ele>
        <time>2019-05-17T15:04:23Z</time>
      </trkpt>
      <trkpt lat="48.98831" lon="2.07514">
        <ele>24</ele>
        <time>2019-05-17T15:04:27Z</time>
      </trkpt>
      <trkpt lat="48.9884" lon="2.07509">
        <ele>25</ele>
        <time>2019-05-17T15:04:33Z</time>
      </trkpt>
      <trkpt lat="48.9885" lon="2.07507">
        <ele>26</ele>
        <time>2019-05-17T15:04:42Z</time>
      </trkpt>
      <trkpt lat="48.98859" lon="2.07503">
        <ele>26</ele>
        <time>2019-05-17T15:04:50Z</time>
      </trkpt>
      <trkpt lat="48.98869" lon="2.075">
        <ele>26</ele>
        <time>2019-05-17T15:04:56Z</time>
      </trkpt>
      <trkpt lat="48.98878" lon="2.07493">
        <ele>27</ele>
        <time>2019-05-17T15:05:12Z</time>
      </trkpt>
      <trkpt lat="48.98888" lon="2.07488">
        <ele>27</ele>
        <time>2019-05-17T15:05:21Z</time>
      </trkpt>
      <trkpt lat="48.98898" lon="2.07483">
        <ele>27</ele>
        <time>2019-05-17T15:05:31Z</time>
      </trkpt>
      <trkpt lat="48.98907" lon="2.07481">
        <ele>27</ele>
        <time>2019-05-17T15:05:39Z</time>
      </trkpt>
      <trkpt lat="48.98917" lon="2.07483">
        <ele>29</ele>
        <time>2019-05-17T15:05:46Z</time>
      </trkpt>
    </trkseg>
  </trk>
</gpx>